<?xml version="1.0" encoding="UTF-8" standalone="no" ?>
<gpx xmlns="http://www.topografix.com/GPX/1/1" xmlns:xsi="http://www.w3.org/2001/XMLSchema-instance" xsi:schemaLocation="http://www.topografix.com/GPX/1/1 http://www.topografix.com/GPX/1/1/gpx.xsd" version="1.1" creator="VisuGPX - https://www.visugpx.com">
  <metadata>
    <name>Boucle de la Corniche</name>
    <desc><![CDATA[Petit boucle sur le Mont Leuze. Descente par le parc de Mont Vinaigrier.]]></desc>
  </metadata>
  <trk>
    <name><![CDATA[HAUSRUNDE1]]></name>
    <trkseg>
      <trkpt lat="43.71408" lon="7.29693">
        <ele>94.83</ele>
        <time>2014-06-30T16:56:17Z</time>
      </trkpt>
      <trkpt lat="43.71408" lon="7.29692">
        <ele>94.83</ele>
        <time>2014-06-30T16:56:51Z</time>
      </trkpt>
      <trkpt lat="43.71411" lon="7.29693">
        <ele>98.19</ele>
        <time>2014-06-30T16:57:01Z</time>
      </trkpt>
      <trkpt lat="43.71411" lon="7.29687">
        <ele>100.11</ele>
        <time>2014-06-30T16:57:19Z</time>
      </trkpt>
      <trkpt lat="43.71413" lon="7.29683">
        <ele>98.19</ele>
        <time>2014-06-30T16:57:32Z</time>
      </trkpt>
      <trkpt lat="43.71413" lon="7.29684">
        <ele>95.79</ele>
        <time>2014-06-30T16:57:46Z</time>
      </trkpt>
      <trkpt lat="43.71413" lon="7.29682">
        <ele>95.31</ele>
        <time>2014-06-30T16:57:48Z</time>
      </trkpt>
      <trkpt lat="43.71417" lon="7.29674">
        <ele>88.58</ele>
        <time>2014-06-30T16:58:00Z</time>
      </trkpt>
      <trkpt lat="43.71418" lon="7.29675">
        <ele>87.14</ele>
        <time>2014-06-30T16:58:14Z</time>
      </trkpt>
      <trkpt lat="43.71421" lon="7.29673">
        <ele>85.21</ele>
        <time>2014-06-30T16:58:31Z</time>
      </trkpt>
      <trkpt lat="43.71422" lon="7.29672">
        <ele>84.25</ele>
        <time>2014-06-30T16:58:42Z</time>
      </trkpt>
      <trkpt lat="43.71425" lon="7.29673">
        <ele>83.77</ele>
        <time>2014-06-30T16:58:54Z</time>
      </trkpt>
      <trkpt lat="43.71425" lon="7.29675">
        <ele>82.81</ele>
        <time>2014-06-30T16:59:21Z</time>
      </trkpt>
      <trkpt lat="43.71425" lon="7.29675">
        <ele>83.77</ele>
        <time>2014-06-30T16:59:45Z</time>
      </trkpt>
      <trkpt lat="43.71425" lon="7.29675">
        <ele>83.77</ele>
        <time>2014-06-30T16:59:46Z</time>
      </trkpt>
      <trkpt lat="43.71433" lon="7.29679">
        <ele>83.77</ele>
        <time>2014-06-30T16:59:51Z</time>
      </trkpt>
      <trkpt lat="43.7147" lon="7.29695">
        <ele>86.18</ele>
        <time>2014-06-30T17:00:06Z</time>
      </trkpt>
      <trkpt lat="43.71502" lon="7.29705">
        <ele>87.62</ele>
        <time>2014-06-30T17:00:19Z</time>
      </trkpt>
      <trkpt lat="43.71544" lon="7.29719">
        <ele>90.5</ele>
        <time>2014-06-30T17:00:37Z</time>
      </trkpt>
      <trkpt lat="43.71577" lon="7.29725">
        <ele>94.35</ele>
        <time>2014-06-30T17:00:51Z</time>
      </trkpt>
      <trkpt lat="43.71611" lon="7.29731">
        <ele>97.71</ele>
        <time>2014-06-30T17:01:05Z</time>
      </trkpt>
      <trkpt lat="43.71641" lon="7.2974">
        <ele>100.6</ele>
        <time>2014-06-30T17:01:18Z</time>
      </trkpt>
      <trkpt lat="43.71672" lon="7.29748">
        <ele>103</ele>
        <time>2014-06-30T17:01:30Z</time>
      </trkpt>
      <trkpt lat="43.71702" lon="7.29757">
        <ele>105.88</ele>
        <time>2014-06-30T17:01:43Z</time>
      </trkpt>
      <trkpt lat="43.71728" lon="7.29774">
        <ele>109.73</ele>
        <time>2014-06-30T17:01:56Z</time>
      </trkpt>
      <trkpt lat="43.71751" lon="7.29806">
        <ele>110.69</ele>
        <time>2014-06-30T17:02:08Z</time>
      </trkpt>
      <trkpt lat="43.71754" lon="7.29809">
        <ele>111.17</ele>
        <time>2014-06-30T17:02:09Z</time>
      </trkpt>
      <trkpt lat="43.71769" lon="7.29837">
        <ele>112.61</ele>
        <time>2014-06-30T17:02:19Z</time>
      </trkpt>
      <trkpt lat="43.71772" lon="7.29841">
        <ele>112.61</ele>
        <time>2014-06-30T17:02:21Z</time>
      </trkpt>
      <trkpt lat="43.71796" lon="7.2985">
        <ele>114.05</ele>
        <time>2014-06-30T17:02:31Z</time>
      </trkpt>
      <trkpt lat="43.71805" lon="7.29841">
        <ele>115.5</ele>
        <time>2014-06-30T17:02:37Z</time>
      </trkpt>
      <trkpt lat="43.71826" lon="7.29816">
        <ele>117.42</ele>
        <time>2014-06-30T17:02:51Z</time>
      </trkpt>
      <trkpt lat="43.71853" lon="7.2978">
        <ele>121.26</ele>
        <time>2014-06-30T17:03:09Z</time>
      </trkpt>
      <trkpt lat="43.71867" lon="7.29763">
        <ele>122.22</ele>
        <time>2014-06-30T17:03:18Z</time>
      </trkpt>
      <trkpt lat="43.71873" lon="7.29754">
        <ele>123.19</ele>
        <time>2014-06-30T17:03:23Z</time>
      </trkpt>
      <trkpt lat="43.71894" lon="7.2973">
        <ele>125.59</ele>
        <time>2014-06-30T17:03:37Z</time>
      </trkpt>
      <trkpt lat="43.7192" lon="7.29701">
        <ele>126.55</ele>
        <time>2014-06-30T17:03:53Z</time>
      </trkpt>
      <trkpt lat="43.71935" lon="7.29678">
        <ele>129.43</ele>
        <time>2014-06-30T17:04:05Z</time>
      </trkpt>
      <trkpt lat="43.71963" lon="7.29649">
        <ele>134.24</ele>
        <time>2014-06-30T17:04:21Z</time>
      </trkpt>
      <trkpt lat="43.71993" lon="7.29641">
        <ele>138.57</ele>
        <time>2014-06-30T17:04:36Z</time>
      </trkpt>
      <trkpt lat="43.72022" lon="7.29655">
        <ele>141.45</ele>
        <time>2014-06-30T17:04:51Z</time>
      </trkpt>
      <trkpt lat="43.72036" lon="7.2967">
        <ele>140.97</ele>
        <time>2014-06-30T17:05:00Z</time>
      </trkpt>
      <trkpt lat="43.72039" lon="7.29677">
        <ele>141.45</ele>
        <time>2014-06-30T17:05:04Z</time>
      </trkpt>
      <trkpt lat="43.72066" lon="7.29698">
        <ele>143.85</ele>
        <time>2014-06-30T17:05:19Z</time>
      </trkpt>
      <trkpt lat="43.72096" lon="7.29694">
        <ele>146.74</ele>
        <time>2014-06-30T17:05:31Z</time>
      </trkpt>
      <trkpt lat="43.72116" lon="7.29663">
        <ele>150.58</ele>
        <time>2014-06-30T17:05:44Z</time>
      </trkpt>
      <trkpt lat="43.72141" lon="7.29626">
        <ele>153.95</ele>
        <time>2014-06-30T17:06:01Z</time>
      </trkpt>
      <trkpt lat="43.72162" lon="7.29594">
        <ele>157.31</ele>
        <time>2014-06-30T17:06:16Z</time>
      </trkpt>
      <trkpt lat="43.72181" lon="7.2957">
        <ele>160.2</ele>
        <time>2014-06-30T17:06:29Z</time>
      </trkpt>
      <trkpt lat="43.72212" lon="7.29554">
        <ele>163.08</ele>
        <time>2014-06-30T17:06:44Z</time>
      </trkpt>
      <trkpt lat="43.72241" lon="7.29549">
        <ele>167.41</ele>
        <time>2014-06-30T17:06:58Z</time>
      </trkpt>
      <trkpt lat="43.72258" lon="7.2955">
        <ele>169.33</ele>
        <time>2014-06-30T17:07:06Z</time>
      </trkpt>
      <trkpt lat="43.72282" lon="7.29556">
        <ele>172.69</ele>
        <time>2014-06-30T17:07:18Z</time>
      </trkpt>
      <trkpt lat="43.72294" lon="7.29558">
        <ele>174.14</ele>
        <time>2014-06-30T17:07:24Z</time>
      </trkpt>
      <trkpt lat="43.72318" lon="7.29577">
        <ele>177.98</ele>
        <time>2014-06-30T17:07:36Z</time>
      </trkpt>
      <trkpt lat="43.72339" lon="7.29604">
        <ele>180.38</ele>
        <time>2014-06-30T17:07:47Z</time>
      </trkpt>
      <trkpt lat="43.72362" lon="7.29635">
        <ele>180.87</ele>
        <time>2014-06-30T17:08:01Z</time>
      </trkpt>
      <trkpt lat="43.72384" lon="7.29648">
        <ele>182.31</ele>
        <time>2014-06-30T17:08:12Z</time>
      </trkpt>
      <trkpt lat="43.7241" lon="7.29653">
        <ele>183.75</ele>
        <time>2014-06-30T17:08:25Z</time>
      </trkpt>
      <trkpt lat="43.72441" lon="7.29645">
        <ele>185.19</ele>
        <time>2014-06-30T17:08:40Z</time>
      </trkpt>
      <trkpt lat="43.72466" lon="7.2963">
        <ele>186.63</ele>
        <time>2014-06-30T17:08:52Z</time>
      </trkpt>
      <trkpt lat="43.72493" lon="7.29603">
        <ele>190</ele>
        <time>2014-06-30T17:09:07Z</time>
      </trkpt>
      <trkpt lat="43.72518" lon="7.29574">
        <ele>192.4</ele>
        <time>2014-06-30T17:09:22Z</time>
      </trkpt>
      <trkpt lat="43.72544" lon="7.29548">
        <ele>191.92</ele>
        <time>2014-06-30T17:09:36Z</time>
      </trkpt>
      <trkpt lat="43.72564" lon="7.29524">
        <ele>194.32</ele>
        <time>2014-06-30T17:09:48Z</time>
      </trkpt>
      <trkpt lat="43.72583" lon="7.295">
        <ele>197.21</ele>
        <time>2014-06-30T17:10:00Z</time>
      </trkpt>
      <trkpt lat="43.72613" lon="7.29474">
        <ele>201.53</ele>
        <time>2014-06-30T17:10:15Z</time>
      </trkpt>
      <trkpt lat="43.72637" lon="7.29474">
        <ele>205.38</ele>
        <time>2014-06-30T17:10:26Z</time>
      </trkpt>
      <trkpt lat="43.72665" lon="7.29484">
        <ele>207.3</ele>
        <time>2014-06-30T17:10:37Z</time>
      </trkpt>
      <trkpt lat="43.72704" lon="7.295">
        <ele>208.26</ele>
        <time>2014-06-30T17:10:50Z</time>
      </trkpt>
      <trkpt lat="43.72745" lon="7.29514">
        <ele>208.74</ele>
        <time>2014-06-30T17:11:01Z</time>
      </trkpt>
      <trkpt lat="43.72795" lon="7.29531">
        <ele>209.7</ele>
        <time>2014-06-30T17:11:15Z</time>
      </trkpt>
      <trkpt lat="43.72844" lon="7.29547">
        <ele>210.67</ele>
        <time>2014-06-30T17:11:30Z</time>
      </trkpt>
      <trkpt lat="43.72874" lon="7.29557">
        <ele>213.55</ele>
        <time>2014-06-30T17:11:43Z</time>
      </trkpt>
      <trkpt lat="43.72898" lon="7.29566">
        <ele>215.95</ele>
        <time>2014-06-30T17:11:55Z</time>
      </trkpt>
      <trkpt lat="43.72933" lon="7.29577">
        <ele>219.32</ele>
        <time>2014-06-30T17:12:11Z</time>
      </trkpt>
      <trkpt lat="43.7297" lon="7.29589">
        <ele>221.24</ele>
        <time>2014-06-30T17:12:26Z</time>
      </trkpt>
      <trkpt lat="43.73006" lon="7.29587">
        <ele>224.61</ele>
        <time>2014-06-30T17:12:41Z</time>
      </trkpt>
      <trkpt lat="43.73036" lon="7.29587">
        <ele>227.01</ele>
        <time>2014-06-30T17:12:55Z</time>
      </trkpt>
      <trkpt lat="43.73056" lon="7.29603">
        <ele>228.93</ele>
        <time>2014-06-30T17:13:06Z</time>
      </trkpt>
      <trkpt lat="43.73056" lon="7.29606">
        <ele>228.93</ele>
        <time>2014-06-30T17:13:07Z</time>
      </trkpt>
      <trkpt lat="43.73057" lon="7.29609">
        <ele>228.93</ele>
        <time>2014-06-30T17:13:08Z</time>
      </trkpt>
      <trkpt lat="43.73057" lon="7.29611">
        <ele>228.93</ele>
        <time>2014-06-30T17:13:09Z</time>
      </trkpt>
      <trkpt lat="43.73058" lon="7.29614">
        <ele>228.93</ele>
        <time>2014-06-30T17:13:10Z</time>
      </trkpt>
      <trkpt lat="43.7306" lon="7.29616">
        <ele>229.41</ele>
        <time>2014-06-30T17:13:11Z</time>
      </trkpt>
      <trkpt lat="43.73061" lon="7.29619">
        <ele>229.41</ele>
        <time>2014-06-30T17:13:12Z</time>
      </trkpt>
      <trkpt lat="43.73074" lon="7.29661">
        <ele>233.74</ele>
        <time>2014-06-30T17:13:27Z</time>
      </trkpt>
      <trkpt lat="43.73077" lon="7.29705">
        <ele>236.62</ele>
        <time>2014-06-30T17:13:42Z</time>
      </trkpt>
      <trkpt lat="43.73075" lon="7.29745">
        <ele>238.06</ele>
        <time>2014-06-30T17:13:56Z</time>
      </trkpt>
      <trkpt lat="43.73074" lon="7.29751">
        <ele>238.54</ele>
        <time>2014-06-30T17:13:58Z</time>
      </trkpt>
      <trkpt lat="43.73067" lon="7.29795">
        <ele>238.06</ele>
        <time>2014-06-30T17:14:12Z</time>
      </trkpt>
      <trkpt lat="43.73064" lon="7.29832">
        <ele>238.54</ele>
        <time>2014-06-30T17:14:25Z</time>
      </trkpt>
      <trkpt lat="43.73054" lon="7.29867">
        <ele>239.51</ele>
        <time>2014-06-30T17:14:38Z</time>
      </trkpt>
      <trkpt lat="43.73034" lon="7.29904">
        <ele>243.83</ele>
        <time>2014-06-30T17:14:54Z</time>
      </trkpt>
      <trkpt lat="43.7301" lon="7.29935">
        <ele>248.64</ele>
        <time>2014-06-30T17:15:09Z</time>
      </trkpt>
      <trkpt lat="43.72994" lon="7.29957">
        <ele>252</ele>
        <time>2014-06-30T17:15:20Z</time>
      </trkpt>
      <trkpt lat="43.72974" lon="7.29985">
        <ele>252.48</ele>
        <time>2014-06-30T17:15:34Z</time>
      </trkpt>
      <trkpt lat="43.72961" lon="7.30004">
        <ele>253.44</ele>
        <time>2014-06-30T17:15:43Z</time>
      </trkpt>
      <trkpt lat="43.72948" lon="7.30014">
        <ele>253.44</ele>
        <time>2014-06-30T17:15:51Z</time>
      </trkpt>
      <trkpt lat="43.72949" lon="7.30025">
        <ele>254.41</ele>
        <time>2014-06-30T17:15:53Z</time>
      </trkpt>
      <trkpt lat="43.72949" lon="7.30029">
        <ele>254.89</ele>
        <time>2014-06-30T17:15:54Z</time>
      </trkpt>
      <trkpt lat="43.72948" lon="7.30033">
        <ele>255.37</ele>
        <time>2014-06-30T17:15:55Z</time>
      </trkpt>
      <trkpt lat="43.72948" lon="7.30036">
        <ele>255.37</ele>
        <time>2014-06-30T17:15:56Z</time>
      </trkpt>
      <trkpt lat="43.72949" lon="7.3004">
        <ele>256.33</ele>
        <time>2014-06-30T17:15:57Z</time>
      </trkpt>
      <trkpt lat="43.7295" lon="7.30044">
        <ele>256.81</ele>
        <time>2014-06-30T17:15:58Z</time>
      </trkpt>
      <trkpt lat="43.72951" lon="7.30047">
        <ele>257.29</ele>
        <time>2014-06-30T17:15:59Z</time>
      </trkpt>
      <trkpt lat="43.72952" lon="7.3005">
        <ele>257.77</ele>
        <time>2014-06-30T17:16:00Z</time>
      </trkpt>
      <trkpt lat="43.72953" lon="7.30053">
        <ele>257.77</ele>
        <time>2014-06-30T17:16:01Z</time>
      </trkpt>
      <trkpt lat="43.72956" lon="7.30075">
        <ele>259.21</ele>
        <time>2014-06-30T17:16:08Z</time>
      </trkpt>
      <trkpt lat="43.72958" lon="7.30078">
        <ele>259.69</ele>
        <time>2014-06-30T17:16:09Z</time>
      </trkpt>
      <trkpt lat="43.72959" lon="7.30081">
        <ele>259.69</ele>
        <time>2014-06-30T17:16:10Z</time>
      </trkpt>
      <trkpt lat="43.7296" lon="7.30084">
        <ele>259.69</ele>
        <time>2014-06-30T17:16:11Z</time>
      </trkpt>
      <trkpt lat="43.72961" lon="7.30087">
        <ele>260.17</ele>
        <time>2014-06-30T17:16:12Z</time>
      </trkpt>
      <trkpt lat="43.72962" lon="7.3009">
        <ele>260.65</ele>
        <time>2014-06-30T17:16:13Z</time>
      </trkpt>
      <trkpt lat="43.72962" lon="7.30093">
        <ele>261.14</ele>
        <time>2014-06-30T17:16:14Z</time>
      </trkpt>
      <trkpt lat="43.72963" lon="7.30096">
        <ele>261.62</ele>
        <time>2014-06-30T17:16:15Z</time>
      </trkpt>
      <trkpt lat="43.72964" lon="7.30098">
        <ele>262.1</ele>
        <time>2014-06-30T17:16:16Z</time>
      </trkpt>
      <trkpt lat="43.72964" lon="7.30101">
        <ele>262.58</ele>
        <time>2014-06-30T17:16:17Z</time>
      </trkpt>
      <trkpt lat="43.72965" lon="7.30103">
        <ele>263.06</ele>
        <time>2014-06-30T17:16:18Z</time>
      </trkpt>
      <trkpt lat="43.72966" lon="7.30106">
        <ele>263.06</ele>
        <time>2014-06-30T17:16:19Z</time>
      </trkpt>
      <trkpt lat="43.72968" lon="7.30108">
        <ele>263.54</ele>
        <time>2014-06-30T17:16:20Z</time>
      </trkpt>
      <trkpt lat="43.7298" lon="7.30147">
        <ele>266.42</ele>
        <time>2014-06-30T17:16:33Z</time>
      </trkpt>
      <trkpt lat="43.72981" lon="7.30153">
        <ele>266.42</ele>
        <time>2014-06-30T17:16:35Z</time>
      </trkpt>
      <trkpt lat="43.72981" lon="7.30156">
        <ele>266.9</ele>
        <time>2014-06-30T17:16:36Z</time>
      </trkpt>
      <trkpt lat="43.72981" lon="7.30158">
        <ele>266.9</ele>
        <time>2014-06-30T17:16:37Z</time>
      </trkpt>
      <trkpt lat="43.72982" lon="7.30161">
        <ele>267.38</ele>
        <time>2014-06-30T17:16:38Z</time>
      </trkpt>
      <trkpt lat="43.72982" lon="7.30164">
        <ele>267.38</ele>
        <time>2014-06-30T17:16:39Z</time>
      </trkpt>
      <trkpt lat="43.72989" lon="7.30206">
        <ele>266.9</ele>
        <time>2014-06-30T17:16:53Z</time>
      </trkpt>
      <trkpt lat="43.72987" lon="7.30252">
        <ele>268.83</ele>
        <time>2014-06-30T17:17:08Z</time>
      </trkpt>
      <trkpt lat="43.72961" lon="7.30271">
        <ele>268.83</ele>
        <time>2014-06-30T17:17:19Z</time>
      </trkpt>
      <trkpt lat="43.72906" lon="7.30271">
        <ele>268.35</ele>
        <time>2014-06-30T17:17:34Z</time>
      </trkpt>
      <trkpt lat="43.72898" lon="7.30272">
        <ele>268.83</ele>
        <time>2014-06-30T17:17:36Z</time>
      </trkpt>
      <trkpt lat="43.72894" lon="7.30273">
        <ele>268.83</ele>
        <time>2014-06-30T17:17:37Z</time>
      </trkpt>
      <trkpt lat="43.72845" lon="7.30272">
        <ele>269.31</ele>
        <time>2014-06-30T17:17:49Z</time>
      </trkpt>
      <trkpt lat="43.72842" lon="7.30271">
        <ele>269.31</ele>
        <time>2014-06-30T17:17:50Z</time>
      </trkpt>
      <trkpt lat="43.72838" lon="7.30271">
        <ele>268.83</ele>
        <time>2014-06-30T17:17:51Z</time>
      </trkpt>
      <trkpt lat="43.72834" lon="7.30271">
        <ele>268.83</ele>
        <time>2014-06-30T17:17:52Z</time>
      </trkpt>
      <trkpt lat="43.7283" lon="7.30272">
        <ele>269.31</ele>
        <time>2014-06-30T17:17:53Z</time>
      </trkpt>
      <trkpt lat="43.72827" lon="7.30273">
        <ele>269.31</ele>
        <time>2014-06-30T17:17:54Z</time>
      </trkpt>
      <trkpt lat="43.72777" lon="7.30293">
        <ele>271.23</ele>
        <time>2014-06-30T17:18:07Z</time>
      </trkpt>
      <trkpt lat="43.72718" lon="7.30325">
        <ele>276.52</ele>
        <time>2014-06-30T17:18:21Z</time>
      </trkpt>
      <trkpt lat="43.72709" lon="7.30325">
        <ele>277.48</ele>
        <time>2014-06-30T17:18:23Z</time>
      </trkpt>
      <trkpt lat="43.72704" lon="7.30326">
        <ele>277.48</ele>
        <time>2014-06-30T17:18:24Z</time>
      </trkpt>
      <trkpt lat="43.72691" lon="7.3033">
        <ele>277.48</ele>
        <time>2014-06-30T17:18:27Z</time>
      </trkpt>
      <trkpt lat="43.72682" lon="7.30331">
        <ele>277.48</ele>
        <time>2014-06-30T17:18:29Z</time>
      </trkpt>
      <trkpt lat="43.72677" lon="7.3033">
        <ele>277.48</ele>
        <time>2014-06-30T17:18:30Z</time>
      </trkpt>
      <trkpt lat="43.72673" lon="7.3033">
        <ele>277.48</ele>
        <time>2014-06-30T17:18:31Z</time>
      </trkpt>
      <trkpt lat="43.72652" lon="7.30323">
        <ele>277</ele>
        <time>2014-06-30T17:18:36Z</time>
      </trkpt>
      <trkpt lat="43.72644" lon="7.30319">
        <ele>276.52</ele>
        <time>2014-06-30T17:18:38Z</time>
      </trkpt>
      <trkpt lat="43.72627" lon="7.30308">
        <ele>277</ele>
        <time>2014-06-30T17:18:42Z</time>
      </trkpt>
      <trkpt lat="43.72611" lon="7.30299">
        <ele>276.52</ele>
        <time>2014-06-30T17:18:46Z</time>
      </trkpt>
      <trkpt lat="43.72607" lon="7.30298">
        <ele>276.52</ele>
        <time>2014-06-30T17:18:47Z</time>
      </trkpt>
      <trkpt lat="43.72592" lon="7.30294">
        <ele>276.04</ele>
        <time>2014-06-30T17:18:51Z</time>
      </trkpt>
      <trkpt lat="43.72588" lon="7.30293">
        <ele>276.04</ele>
        <time>2014-06-30T17:18:52Z</time>
      </trkpt>
      <trkpt lat="43.72584" lon="7.30293">
        <ele>276.04</ele>
        <time>2014-06-30T17:18:53Z</time>
      </trkpt>
      <trkpt lat="43.72531" lon="7.30296">
        <ele>274.11</ele>
        <time>2014-06-30T17:19:07Z</time>
      </trkpt>
      <trkpt lat="43.72495" lon="7.30324">
        <ele>275.07</ele>
        <time>2014-06-30T17:19:18Z</time>
      </trkpt>
      <trkpt lat="43.72452" lon="7.30325">
        <ele>275.07</ele>
        <time>2014-06-30T17:19:30Z</time>
      </trkpt>
      <trkpt lat="43.72406" lon="7.30331">
        <ele>277.96</ele>
        <time>2014-06-30T17:19:43Z</time>
      </trkpt>
      <trkpt lat="43.72378" lon="7.30347">
        <ele>281.32</ele>
        <time>2014-06-30T17:19:50Z</time>
      </trkpt>
      <trkpt lat="43.7237" lon="7.30351">
        <ele>282.28</ele>
        <time>2014-06-30T17:19:52Z</time>
      </trkpt>
      <trkpt lat="43.72312" lon="7.30371">
        <ele>283.73</ele>
        <time>2014-06-30T17:20:07Z</time>
      </trkpt>
      <trkpt lat="43.72294" lon="7.30378">
        <ele>284.69</ele>
        <time>2014-06-30T17:20:17Z</time>
      </trkpt>
      <trkpt lat="43.7229" lon="7.30382">
        <ele>285.17</ele>
        <time>2014-06-30T17:20:47Z</time>
      </trkpt>
      <trkpt lat="43.72253" lon="7.30381">
        <ele>283.73</ele>
        <time>2014-06-30T17:20:58Z</time>
      </trkpt>
      <trkpt lat="43.72208" lon="7.30362">
        <ele>283.25</ele>
        <time>2014-06-30T17:21:11Z</time>
      </trkpt>
      <trkpt lat="43.72173" lon="7.30335">
        <ele>283.25</ele>
        <time>2014-06-30T17:21:24Z</time>
      </trkpt>
      <trkpt lat="43.72141" lon="7.30312">
        <ele>283.73</ele>
        <time>2014-06-30T17:21:35Z</time>
      </trkpt>
      <trkpt lat="43.72103" lon="7.30312">
        <ele>286.13</ele>
        <time>2014-06-30T17:21:47Z</time>
      </trkpt>
      <trkpt lat="43.72092" lon="7.30354">
        <ele>289.01</ele>
        <time>2014-06-30T17:21:56Z</time>
      </trkpt>
      <trkpt lat="43.72093" lon="7.30431">
        <ele>293.34</ele>
        <time>2014-06-30T17:22:12Z</time>
      </trkpt>
      <trkpt lat="43.72077" lon="7.30473">
        <ele>295.26</ele>
        <time>2014-06-30T17:22:24Z</time>
      </trkpt>
      <trkpt lat="43.72034" lon="7.30511">
        <ele>297.18</ele>
        <time>2014-06-30T17:22:40Z</time>
      </trkpt>
      <trkpt lat="43.72" lon="7.3054">
        <ele>298.63</ele>
        <time>2014-06-30T17:22:53Z</time>
      </trkpt>
      <trkpt lat="43.71977" lon="7.30577">
        <ele>299.59</ele>
        <time>2014-06-30T17:23:04Z</time>
      </trkpt>
      <trkpt lat="43.71955" lon="7.30607">
        <ele>300.55</ele>
        <time>2014-06-30T17:23:14Z</time>
      </trkpt>
      <trkpt lat="43.71939" lon="7.30628">
        <ele>300.55</ele>
        <time>2014-06-30T17:23:22Z</time>
      </trkpt>
      <trkpt lat="43.71936" lon="7.30629">
        <ele>300.55</ele>
        <time>2014-06-30T17:23:23Z</time>
      </trkpt>
      <trkpt lat="43.71934" lon="7.30631">
        <ele>300.55</ele>
        <time>2014-06-30T17:23:24Z</time>
      </trkpt>
      <trkpt lat="43.71932" lon="7.30633">
        <ele>300.55</ele>
        <time>2014-06-30T17:23:25Z</time>
      </trkpt>
      <trkpt lat="43.71929" lon="7.30636">
        <ele>300.55</ele>
        <time>2014-06-30T17:23:26Z</time>
      </trkpt>
      <trkpt lat="43.71927" lon="7.30638">
        <ele>300.55</ele>
        <time>2014-06-30T17:23:27Z</time>
      </trkpt>
      <trkpt lat="43.71925" lon="7.3064">
        <ele>300.55</ele>
        <time>2014-06-30T17:23:28Z</time>
      </trkpt>
      <trkpt lat="43.71922" lon="7.30642">
        <ele>300.55</ele>
        <time>2014-06-30T17:23:29Z</time>
      </trkpt>
      <trkpt lat="43.7192" lon="7.30644">
        <ele>300.07</ele>
        <time>2014-06-30T17:23:30Z</time>
      </trkpt>
      <trkpt lat="43.71917" lon="7.30645">
        <ele>300.07</ele>
        <time>2014-06-30T17:23:31Z</time>
      </trkpt>
      <trkpt lat="43.71913" lon="7.30653">
        <ele>300.07</ele>
        <time>2014-06-30T17:23:33Z</time>
      </trkpt>
      <trkpt lat="43.71899" lon="7.30731">
        <ele>303.43</ele>
        <time>2014-06-30T17:23:48Z</time>
      </trkpt>
      <trkpt lat="43.7191" lon="7.30788">
        <ele>307.76</ele>
        <time>2014-06-30T17:24:01Z</time>
      </trkpt>
      <trkpt lat="43.71932" lon="7.30837">
        <ele>311.12</ele>
        <time>2014-06-30T17:24:14Z</time>
      </trkpt>
      <trkpt lat="43.71932" lon="7.30879">
        <ele>314.97</ele>
        <time>2014-06-30T17:24:24Z</time>
      </trkpt>
      <trkpt lat="43.71913" lon="7.30924">
        <ele>317.37</ele>
        <time>2014-06-30T17:24:36Z</time>
      </trkpt>
      <trkpt lat="43.71898" lon="7.30959">
        <ele>316.41</ele>
        <time>2014-06-30T17:24:45Z</time>
      </trkpt>
      <trkpt lat="43.71877" lon="7.30995">
        <ele>314.01</ele>
        <time>2014-06-30T17:24:55Z</time>
      </trkpt>
      <trkpt lat="43.71834" lon="7.31017">
        <ele>314.49</ele>
        <time>2014-06-30T17:25:09Z</time>
      </trkpt>
      <trkpt lat="43.71789" lon="7.31035">
        <ele>315.93</ele>
        <time>2014-06-30T17:25:24Z</time>
      </trkpt>
      <trkpt lat="43.71747" lon="7.31048">
        <ele>316.89</ele>
        <time>2014-06-30T17:25:38Z</time>
      </trkpt>
      <trkpt lat="43.71711" lon="7.31073">
        <ele>317.37</ele>
        <time>2014-06-30T17:25:51Z</time>
      </trkpt>
      <trkpt lat="43.71702" lon="7.3112">
        <ele>319.3</ele>
        <time>2014-06-30T17:26:02Z</time>
      </trkpt>
      <trkpt lat="43.71701" lon="7.31168">
        <ele>324.1</ele>
        <time>2014-06-30T17:26:13Z</time>
      </trkpt>
      <trkpt lat="43.71689" lon="7.31218">
        <ele>325.54</ele>
        <time>2014-06-30T17:26:25Z</time>
      </trkpt>
      <trkpt lat="43.71674" lon="7.31288">
        <ele>331.31</ele>
        <time>2014-06-30T17:26:40Z</time>
      </trkpt>
      <trkpt lat="43.71669" lon="7.31338">
        <ele>336.12</ele>
        <time>2014-06-30T17:26:54Z</time>
      </trkpt>
      <trkpt lat="43.71673" lon="7.31377">
        <ele>339.48</ele>
        <time>2014-06-30T17:27:08Z</time>
      </trkpt>
      <trkpt lat="43.71676" lon="7.31405">
        <ele>341.89</ele>
        <time>2014-06-30T17:27:19Z</time>
      </trkpt>
      <trkpt lat="43.71681" lon="7.31445">
        <ele>342.37</ele>
        <time>2014-06-30T17:27:33Z</time>
      </trkpt>
      <trkpt lat="43.71681" lon="7.31451">
        <ele>343.33</ele>
        <time>2014-06-30T17:27:45Z</time>
      </trkpt>
      <trkpt lat="43.71681" lon="7.31455">
        <ele>344.29</ele>
        <time>2014-06-30T17:28:01Z</time>
      </trkpt>
      <trkpt lat="43.71682" lon="7.31458">
        <ele>344.29</ele>
        <time>2014-06-30T17:28:02Z</time>
      </trkpt>
      <trkpt lat="43.71682" lon="7.31461">
        <ele>344.77</ele>
        <time>2014-06-30T17:28:03Z</time>
      </trkpt>
      <trkpt lat="43.71686" lon="7.31499">
        <ele>347.17</ele>
        <time>2014-06-30T17:28:15Z</time>
      </trkpt>
      <trkpt lat="43.7169" lon="7.31543">
        <ele>350.54</ele>
        <time>2014-06-30T17:28:30Z</time>
      </trkpt>
      <trkpt lat="43.71694" lon="7.31591">
        <ele>353.42</ele>
        <time>2014-06-30T17:28:47Z</time>
      </trkpt>
      <trkpt lat="43.71698" lon="7.31635">
        <ele>355.34</ele>
        <time>2014-06-30T17:29:03Z</time>
      </trkpt>
      <trkpt lat="43.71697" lon="7.3168">
        <ele>357.27</ele>
        <time>2014-06-30T17:29:19Z</time>
      </trkpt>
      <trkpt lat="43.71694" lon="7.31724">
        <ele>360.15</ele>
        <time>2014-06-30T17:29:36Z</time>
      </trkpt>
      <trkpt lat="43.71694" lon="7.31727">
        <ele>360.15</ele>
        <time>2014-06-30T17:29:37Z</time>
      </trkpt>
      <trkpt lat="43.71694" lon="7.3173">
        <ele>360.63</ele>
        <time>2014-06-30T17:29:38Z</time>
      </trkpt>
      <trkpt lat="43.71694" lon="7.31732">
        <ele>360.63</ele>
        <time>2014-06-30T17:29:39Z</time>
      </trkpt>
      <trkpt lat="43.71691" lon="7.31766">
        <ele>361.59</ele>
        <time>2014-06-30T17:29:52Z</time>
      </trkpt>
      <trkpt lat="43.71689" lon="7.31796">
        <ele>363.04</ele>
        <time>2014-06-30T17:30:03Z</time>
      </trkpt>
      <trkpt lat="43.71685" lon="7.31841">
        <ele>365.92</ele>
        <time>2014-06-30T17:30:19Z</time>
      </trkpt>
      <trkpt lat="43.71682" lon="7.31877">
        <ele>369.28</ele>
        <time>2014-06-30T17:30:32Z</time>
      </trkpt>
      <trkpt lat="43.71681" lon="7.31918">
        <ele>370.73</ele>
        <time>2014-06-30T17:30:47Z</time>
      </trkpt>
      <trkpt lat="43.71682" lon="7.31963">
        <ele>374.09</ele>
        <time>2014-06-30T17:31:02Z</time>
      </trkpt>
      <trkpt lat="43.71679" lon="7.32009">
        <ele>379.38</ele>
        <time>2014-06-30T17:31:18Z</time>
      </trkpt>
      <trkpt lat="43.71676" lon="7.32043">
        <ele>383.22</ele>
        <time>2014-06-30T17:31:30Z</time>
      </trkpt>
      <trkpt lat="43.71668" lon="7.32077">
        <ele>386.11</ele>
        <time>2014-06-30T17:31:42Z</time>
      </trkpt>
      <trkpt lat="43.71664" lon="7.32089">
        <ele>386.59</ele>
        <time>2014-06-30T17:31:47Z</time>
      </trkpt>
      <trkpt lat="43.71663" lon="7.32091">
        <ele>387.07</ele>
        <time>2014-06-30T17:31:48Z</time>
      </trkpt>
      <trkpt lat="43.71662" lon="7.32094">
        <ele>387.55</ele>
        <time>2014-06-30T17:31:49Z</time>
      </trkpt>
      <trkpt lat="43.71661" lon="7.32097">
        <ele>387.55</ele>
        <time>2014-06-30T17:31:50Z</time>
      </trkpt>
      <trkpt lat="43.7166" lon="7.321">
        <ele>388.03</ele>
        <time>2014-06-30T17:31:51Z</time>
      </trkpt>
      <trkpt lat="43.71659" lon="7.32102">
        <ele>388.03</ele>
        <time>2014-06-30T17:31:52Z</time>
      </trkpt>
      <trkpt lat="43.71658" lon="7.32105">
        <ele>388.51</ele>
        <time>2014-06-30T17:31:53Z</time>
      </trkpt>
      <trkpt lat="43.71656" lon="7.32152">
        <ele>391.39</ele>
        <time>2014-06-30T17:32:08Z</time>
      </trkpt>
      <trkpt lat="43.71665" lon="7.32197">
        <ele>395.24</ele>
        <time>2014-06-30T17:32:21Z</time>
      </trkpt>
      <trkpt lat="43.71675" lon="7.32258">
        <ele>398.12</ele>
        <time>2014-06-30T17:32:38Z</time>
      </trkpt>
      <trkpt lat="43.71685" lon="7.32311">
        <ele>400.05</ele>
        <time>2014-06-30T17:32:52Z</time>
      </trkpt>
      <trkpt lat="43.71694" lon="7.32364">
        <ele>402.93</ele>
        <time>2014-06-30T17:33:07Z</time>
      </trkpt>
      <trkpt lat="43.71705" lon="7.32421">
        <ele>405.81</ele>
        <time>2014-06-30T17:33:24Z</time>
      </trkpt>
      <trkpt lat="43.71713" lon="7.32464">
        <ele>409.66</ele>
        <time>2014-06-30T17:33:37Z</time>
      </trkpt>
      <trkpt lat="43.71735" lon="7.32517">
        <ele>412.54</ele>
        <time>2014-06-30T17:33:53Z</time>
      </trkpt>
      <trkpt lat="43.71757" lon="7.32562">
        <ele>414.95</ele>
        <time>2014-06-30T17:34:08Z</time>
      </trkpt>
      <trkpt lat="43.71777" lon="7.32603">
        <ele>416.39</ele>
        <time>2014-06-30T17:34:22Z</time>
      </trkpt>
      <trkpt lat="43.718" lon="7.32645">
        <ele>418.79</ele>
        <time>2014-06-30T17:34:37Z</time>
      </trkpt>
      <trkpt lat="43.71826" lon="7.32677">
        <ele>421.19</ele>
        <time>2014-06-30T17:34:51Z</time>
      </trkpt>
      <trkpt lat="43.71863" lon="7.32701">
        <ele>422.64</ele>
        <time>2014-06-30T17:35:06Z</time>
      </trkpt>
      <trkpt lat="43.71891" lon="7.32725">
        <ele>425.04</ele>
        <time>2014-06-30T17:35:19Z</time>
      </trkpt>
      <trkpt lat="43.71905" lon="7.32766">
        <ele>427.92</ele>
        <time>2014-06-30T17:35:32Z</time>
      </trkpt>
      <trkpt lat="43.71916" lon="7.3282">
        <ele>430.81</ele>
        <time>2014-06-30T17:35:48Z</time>
      </trkpt>
      <trkpt lat="43.71936" lon="7.32861">
        <ele>434.17</ele>
        <time>2014-06-30T17:36:02Z</time>
      </trkpt>
      <trkpt lat="43.71965" lon="7.32886">
        <ele>435.61</ele>
        <time>2014-06-30T17:36:15Z</time>
      </trkpt>
      <trkpt lat="43.71965" lon="7.32887">
        <ele>436.1</ele>
        <time>2014-06-30T17:36:27Z</time>
      </trkpt>
      <trkpt lat="43.71976" lon="7.32891">
        <ele>436.1</ele>
        <time>2014-06-30T17:36:53Z</time>
      </trkpt>
      <trkpt lat="43.72006" lon="7.32916">
        <ele>438.02</ele>
        <time>2014-06-30T17:37:06Z</time>
      </trkpt>
      <trkpt lat="43.72017" lon="7.32942">
        <ele>439.94</ele>
        <time>2014-06-30T17:37:15Z</time>
      </trkpt>
      <trkpt lat="43.72016" lon="7.32945">
        <ele>439.94</ele>
        <time>2014-06-30T17:37:16Z</time>
      </trkpt>
      <trkpt lat="43.72002" lon="7.32988">
        <ele>442.34</ele>
        <time>2014-06-30T17:37:31Z</time>
      </trkpt>
      <trkpt lat="43.71987" lon="7.33027">
        <ele>445.71</ele>
        <time>2014-06-30T17:37:45Z</time>
      </trkpt>
      <trkpt lat="43.71982" lon="7.33079">
        <ele>448.59</ele>
        <time>2014-06-30T17:38:02Z</time>
      </trkpt>
      <trkpt lat="43.7198" lon="7.33125">
        <ele>450.52</ele>
        <time>2014-06-30T17:38:17Z</time>
      </trkpt>
      <trkpt lat="43.71996" lon="7.3317">
        <ele>453.88</ele>
        <time>2014-06-30T17:38:33Z</time>
      </trkpt>
      <trkpt lat="43.72005" lon="7.33188">
        <ele>455.32</ele>
        <time>2014-06-30T17:38:47Z</time>
      </trkpt>
      <trkpt lat="43.72004" lon="7.33188">
        <ele>455.32</ele>
        <time>2014-06-30T17:39:18Z</time>
      </trkpt>
      <trkpt lat="43.72004" lon="7.33187">
        <ele>455.8</ele>
        <time>2014-06-30T17:39:33Z</time>
      </trkpt>
      <trkpt lat="43.72005" lon="7.33189">
        <ele>455.8</ele>
        <time>2014-06-30T17:39:34Z</time>
      </trkpt>
      <trkpt lat="43.72027" lon="7.33227">
        <ele>458.21</ele>
        <time>2014-06-30T17:39:49Z</time>
      </trkpt>
      <trkpt lat="43.72054" lon="7.33269">
        <ele>461.57</ele>
        <time>2014-06-30T17:40:06Z</time>
      </trkpt>
      <trkpt lat="43.72079" lon="7.33301">
        <ele>463.97</ele>
        <time>2014-06-30T17:40:21Z</time>
      </trkpt>
      <trkpt lat="43.72101" lon="7.33342">
        <ele>466.86</ele>
        <time>2014-06-30T17:40:37Z</time>
      </trkpt>
      <trkpt lat="43.72121" lon="7.3339">
        <ele>471.18</ele>
        <time>2014-06-30T17:40:55Z</time>
      </trkpt>
      <trkpt lat="43.72142" lon="7.33426">
        <ele>473.59</ele>
        <time>2014-06-30T17:41:10Z</time>
      </trkpt>
      <trkpt lat="43.72166" lon="7.33458">
        <ele>476.47</ele>
        <time>2014-06-30T17:41:25Z</time>
      </trkpt>
      <trkpt lat="43.72198" lon="7.33457">
        <ele>477.91</ele>
        <time>2014-06-30T17:41:37Z</time>
      </trkpt>
      <trkpt lat="43.72227" lon="7.3343">
        <ele>478.87</ele>
        <time>2014-06-30T17:41:50Z</time>
      </trkpt>
      <trkpt lat="43.72253" lon="7.33414">
        <ele>481.28</ele>
        <time>2014-06-30T17:42:01Z</time>
      </trkpt>
      <trkpt lat="43.72256" lon="7.33415">
        <ele>481.76</ele>
        <time>2014-06-30T17:42:02Z</time>
      </trkpt>
      <trkpt lat="43.72258" lon="7.33417">
        <ele>481.76</ele>
        <time>2014-06-30T17:42:03Z</time>
      </trkpt>
      <trkpt lat="43.7226" lon="7.33419">
        <ele>482.24</ele>
        <time>2014-06-30T17:42:04Z</time>
      </trkpt>
      <trkpt lat="43.72262" lon="7.33421">
        <ele>482.72</ele>
        <time>2014-06-30T17:42:05Z</time>
      </trkpt>
      <trkpt lat="43.72264" lon="7.33423">
        <ele>482.72</ele>
        <time>2014-06-30T17:42:06Z</time>
      </trkpt>
      <trkpt lat="43.7228" lon="7.33461">
        <ele>485.12</ele>
        <time>2014-06-30T17:42:18Z</time>
      </trkpt>
      <trkpt lat="43.72294" lon="7.33506">
        <ele>488.49</ele>
        <time>2014-06-30T17:42:33Z</time>
      </trkpt>
      <trkpt lat="43.72307" lon="7.33545">
        <ele>491.85</ele>
        <time>2014-06-30T17:42:46Z</time>
      </trkpt>
      <trkpt lat="43.72321" lon="7.3359">
        <ele>494.26</ele>
        <time>2014-06-30T17:43:00Z</time>
      </trkpt>
      <trkpt lat="43.72346" lon="7.33629">
        <ele>497.14</ele>
        <time>2014-06-30T17:43:14Z</time>
      </trkpt>
      <trkpt lat="43.72382" lon="7.33658">
        <ele>496.66</ele>
        <time>2014-06-30T17:43:26Z</time>
      </trkpt>
      <trkpt lat="43.7243" lon="7.33695">
        <ele>498.1</ele>
        <time>2014-06-30T17:43:41Z</time>
      </trkpt>
      <trkpt lat="43.7247" lon="7.33694">
        <ele>500.02</ele>
        <time>2014-06-30T17:43:53Z</time>
      </trkpt>
      <trkpt lat="43.72495" lon="7.33656">
        <ele>500.02</ele>
        <time>2014-06-30T17:44:03Z</time>
      </trkpt>
      <trkpt lat="43.72523" lon="7.33597">
        <ele>501.46</ele>
        <time>2014-06-30T17:44:17Z</time>
      </trkpt>
      <trkpt lat="43.72552" lon="7.33596">
        <ele>501.95</ele>
        <time>2014-06-30T17:44:26Z</time>
      </trkpt>
      <trkpt lat="43.72575" lon="7.33646">
        <ele>502.91</ele>
        <time>2014-06-30T17:44:38Z</time>
      </trkpt>
      <trkpt lat="43.72603" lon="7.33726">
        <ele>503.87</ele>
        <time>2014-06-30T17:44:56Z</time>
      </trkpt>
      <trkpt lat="43.72624" lon="7.33809">
        <ele>504.35</ele>
        <time>2014-06-30T17:45:13Z</time>
      </trkpt>
      <trkpt lat="43.72635" lon="7.3389">
        <ele>505.31</ele>
        <time>2014-06-30T17:45:29Z</time>
      </trkpt>
      <trkpt lat="43.72662" lon="7.3393">
        <ele>506.27</ele>
        <time>2014-06-30T17:45:40Z</time>
      </trkpt>
      <trkpt lat="43.72685" lon="7.33938">
        <ele>506.75</ele>
        <time>2014-06-30T17:45:46Z</time>
      </trkpt>
      <trkpt lat="43.72689" lon="7.33941">
        <ele>506.75</ele>
        <time>2014-06-30T17:45:47Z</time>
      </trkpt>
      <trkpt lat="43.72692" lon="7.33945">
        <ele>506.75</ele>
        <time>2014-06-30T17:45:48Z</time>
      </trkpt>
      <trkpt lat="43.72694" lon="7.33949">
        <ele>506.27</ele>
        <time>2014-06-30T17:45:49Z</time>
      </trkpt>
      <trkpt lat="43.72697" lon="7.33954">
        <ele>506.27</ele>
        <time>2014-06-30T17:45:50Z</time>
      </trkpt>
      <trkpt lat="43.72698" lon="7.33959">
        <ele>506.27</ele>
        <time>2014-06-30T17:45:51Z</time>
      </trkpt>
      <trkpt lat="43.727" lon="7.33964">
        <ele>506.27</ele>
        <time>2014-06-30T17:45:52Z</time>
      </trkpt>
      <trkpt lat="43.727" lon="7.33969">
        <ele>506.27</ele>
        <time>2014-06-30T17:45:53Z</time>
      </trkpt>
      <trkpt lat="43.727" lon="7.33974">
        <ele>506.27</ele>
        <time>2014-06-30T17:45:54Z</time>
      </trkpt>
      <trkpt lat="43.727" lon="7.3398">
        <ele>506.27</ele>
        <time>2014-06-30T17:45:55Z</time>
      </trkpt>
      <trkpt lat="43.72699" lon="7.33985">
        <ele>506.27</ele>
        <time>2014-06-30T17:45:56Z</time>
      </trkpt>
      <trkpt lat="43.72697" lon="7.3399">
        <ele>506.27</ele>
        <time>2014-06-30T17:45:57Z</time>
      </trkpt>
      <trkpt lat="43.72695" lon="7.33996">
        <ele>506.27</ele>
        <time>2014-06-30T17:45:58Z</time>
      </trkpt>
      <trkpt lat="43.72693" lon="7.34002">
        <ele>506.27</ele>
        <time>2014-06-30T17:45:59Z</time>
      </trkpt>
      <trkpt lat="43.72662" lon="7.34094">
        <ele>506.75</ele>
        <time>2014-06-30T17:46:15Z</time>
      </trkpt>
      <trkpt lat="43.72643" lon="7.3415">
        <ele>507.71</ele>
        <time>2014-06-30T17:46:25Z</time>
      </trkpt>
      <trkpt lat="43.72639" lon="7.34161">
        <ele>507.71</ele>
        <time>2014-06-30T17:46:27Z</time>
      </trkpt>
      <trkpt lat="43.72612" lon="7.34242">
        <ele>509.64</ele>
        <time>2014-06-30T17:46:42Z</time>
      </trkpt>
      <trkpt lat="43.7261" lon="7.34248">
        <ele>509.64</ele>
        <time>2014-06-30T17:46:43Z</time>
      </trkpt>
      <trkpt lat="43.72609" lon="7.34253">
        <ele>510.12</ele>
        <time>2014-06-30T17:46:44Z</time>
      </trkpt>
      <trkpt lat="43.72607" lon="7.34271">
        <ele>510.6</ele>
        <time>2014-06-30T17:46:47Z</time>
      </trkpt>
      <trkpt lat="43.72607" lon="7.34277">
        <ele>510.6</ele>
        <time>2014-06-30T17:46:48Z</time>
      </trkpt>
      <trkpt lat="43.72608" lon="7.34283">
        <ele>511.08</ele>
        <time>2014-06-30T17:46:49Z</time>
      </trkpt>
      <trkpt lat="43.72615" lon="7.34316">
        <ele>510.6</ele>
        <time>2014-06-30T17:46:55Z</time>
      </trkpt>
      <trkpt lat="43.72616" lon="7.34322">
        <ele>510.6</ele>
        <time>2014-06-30T17:46:56Z</time>
      </trkpt>
      <trkpt lat="43.72635" lon="7.34366">
        <ele>512.52</ele>
        <time>2014-06-30T17:47:06Z</time>
      </trkpt>
      <trkpt lat="43.7264" lon="7.34367">
        <ele>512.52</ele>
        <time>2014-06-30T17:47:07Z</time>
      </trkpt>
      <trkpt lat="43.72644" lon="7.34367">
        <ele>512.04</ele>
        <time>2014-06-30T17:47:08Z</time>
      </trkpt>
      <trkpt lat="43.7271" lon="7.34366">
        <ele>510.12</ele>
        <time>2014-06-30T17:47:21Z</time>
      </trkpt>
      <trkpt lat="43.72799" lon="7.34363">
        <ele>509.16</ele>
        <time>2014-06-30T17:47:37Z</time>
      </trkpt>
      <trkpt lat="43.72858" lon="7.34332">
        <ele>507.71</ele>
        <time>2014-06-30T17:47:48Z</time>
      </trkpt>
      <trkpt lat="43.72862" lon="7.34328">
        <ele>507.23</ele>
        <time>2014-06-30T17:47:49Z</time>
      </trkpt>
      <trkpt lat="43.72878" lon="7.34318">
        <ele>506.27</ele>
        <time>2014-06-30T17:47:52Z</time>
      </trkpt>
      <trkpt lat="43.72884" lon="7.34314">
        <ele>506.27</ele>
        <time>2014-06-30T17:47:53Z</time>
      </trkpt>
      <trkpt lat="43.72895" lon="7.34307">
        <ele>506.27</ele>
        <time>2014-06-30T17:47:55Z</time>
      </trkpt>
      <trkpt lat="43.72905" lon="7.34302">
        <ele>506.27</ele>
        <time>2014-06-30T17:47:57Z</time>
      </trkpt>
      <trkpt lat="43.72911" lon="7.343">
        <ele>506.27</ele>
        <time>2014-06-30T17:47:58Z</time>
      </trkpt>
      <trkpt lat="43.72927" lon="7.34295">
        <ele>506.27</ele>
        <time>2014-06-30T17:48:01Z</time>
      </trkpt>
      <trkpt lat="43.72949" lon="7.34292">
        <ele>506.27</ele>
        <time>2014-06-30T17:48:05Z</time>
      </trkpt>
      <trkpt lat="43.72976" lon="7.34288">
        <ele>506.27</ele>
        <time>2014-06-30T17:48:10Z</time>
      </trkpt>
      <trkpt lat="43.72981" lon="7.34286">
        <ele>506.27</ele>
        <time>2014-06-30T17:48:11Z</time>
      </trkpt>
      <trkpt lat="43.73029" lon="7.34254">
        <ele>504.35</ele>
        <time>2014-06-30T17:48:21Z</time>
      </trkpt>
      <trkpt lat="43.73034" lon="7.34249">
        <ele>503.87</ele>
        <time>2014-06-30T17:48:22Z</time>
      </trkpt>
      <trkpt lat="43.73073" lon="7.34182">
        <ele>500.98</ele>
        <time>2014-06-30T17:48:34Z</time>
      </trkpt>
      <trkpt lat="43.73081" lon="7.34173">
        <ele>500.5</ele>
        <time>2014-06-30T17:48:36Z</time>
      </trkpt>
      <trkpt lat="43.73087" lon="7.3417">
        <ele>500.02</ele>
        <time>2014-06-30T17:48:37Z</time>
      </trkpt>
      <trkpt lat="43.73098" lon="7.34165">
        <ele>499.06</ele>
        <time>2014-06-30T17:48:39Z</time>
      </trkpt>
      <trkpt lat="43.73103" lon="7.34164">
        <ele>499.06</ele>
        <time>2014-06-30T17:48:40Z</time>
      </trkpt>
      <trkpt lat="43.73108" lon="7.34164">
        <ele>499.06</ele>
        <time>2014-06-30T17:48:41Z</time>
      </trkpt>
      <trkpt lat="43.73118" lon="7.34166">
        <ele>500.02</ele>
        <time>2014-06-30T17:48:43Z</time>
      </trkpt>
      <trkpt lat="43.73123" lon="7.34164">
        <ele>500.02</ele>
        <time>2014-06-30T17:48:44Z</time>
      </trkpt>
      <trkpt lat="43.73126" lon="7.3416">
        <ele>500.5</ele>
        <time>2014-06-30T17:48:45Z</time>
      </trkpt>
      <trkpt lat="43.73128" lon="7.34156">
        <ele>500.5</ele>
        <time>2014-06-30T17:48:46Z</time>
      </trkpt>
      <trkpt lat="43.73128" lon="7.34152">
        <ele>500.5</ele>
        <time>2014-06-30T17:48:47Z</time>
      </trkpt>
      <trkpt lat="43.73128" lon="7.34149">
        <ele>500.02</ele>
        <time>2014-06-30T17:48:48Z</time>
      </trkpt>
      <trkpt lat="43.73126" lon="7.34145">
        <ele>500.02</ele>
        <time>2014-06-30T17:48:49Z</time>
      </trkpt>
      <trkpt lat="43.73123" lon="7.34141">
        <ele>500.5</ele>
        <time>2014-06-30T17:48:50Z</time>
      </trkpt>
      <trkpt lat="43.7312" lon="7.34139">
        <ele>500.5</ele>
        <time>2014-06-30T17:48:51Z</time>
      </trkpt>
      <trkpt lat="43.73117" lon="7.34136">
        <ele>500.5</ele>
        <time>2014-06-30T17:48:52Z</time>
      </trkpt>
      <trkpt lat="43.73114" lon="7.34135">
        <ele>500.5</ele>
        <time>2014-06-30T17:48:53Z</time>
      </trkpt>
      <trkpt lat="43.73111" lon="7.34133">
        <ele>500.5</ele>
        <time>2014-06-30T17:48:54Z</time>
      </trkpt>
      <trkpt lat="43.73108" lon="7.34131">
        <ele>500.5</ele>
        <time>2014-06-30T17:48:55Z</time>
      </trkpt>
      <trkpt lat="43.73105" lon="7.3413">
        <ele>500.5</ele>
        <time>2014-06-30T17:48:56Z</time>
      </trkpt>
      <trkpt lat="43.73103" lon="7.34127">
        <ele>500.98</ele>
        <time>2014-06-30T17:48:57Z</time>
      </trkpt>
      <trkpt lat="43.73087" lon="7.34106">
        <ele>503.87</ele>
        <time>2014-06-30T17:49:06Z</time>
      </trkpt>
      <trkpt lat="43.73085" lon="7.34104">
        <ele>504.83</ele>
        <time>2014-06-30T17:49:07Z</time>
      </trkpt>
      <trkpt lat="43.73084" lon="7.34102">
        <ele>505.31</ele>
        <time>2014-06-30T17:49:08Z</time>
      </trkpt>
      <trkpt lat="43.73083" lon="7.341">
        <ele>505.79</ele>
        <time>2014-06-30T17:49:09Z</time>
      </trkpt>
      <trkpt lat="43.73082" lon="7.34098">
        <ele>506.27</ele>
        <time>2014-06-30T17:49:10Z</time>
      </trkpt>
      <trkpt lat="43.7308" lon="7.34096">
        <ele>507.23</ele>
        <time>2014-06-30T17:49:11Z</time>
      </trkpt>
      <trkpt lat="43.73079" lon="7.34094">
        <ele>507.71</ele>
        <time>2014-06-30T17:49:12Z</time>
      </trkpt>
      <trkpt lat="43.73077" lon="7.34092">
        <ele>508.19</ele>
        <time>2014-06-30T17:49:13Z</time>
      </trkpt>
      <trkpt lat="43.73076" lon="7.3409">
        <ele>508.67</ele>
        <time>2014-06-30T17:49:14Z</time>
      </trkpt>
      <trkpt lat="43.73075" lon="7.34088">
        <ele>509.16</ele>
        <time>2014-06-30T17:49:15Z</time>
      </trkpt>
      <trkpt lat="43.73074" lon="7.34086">
        <ele>508.67</ele>
        <time>2014-06-30T17:49:16Z</time>
      </trkpt>
      <trkpt lat="43.73073" lon="7.34085">
        <ele>509.16</ele>
        <time>2014-06-30T17:49:17Z</time>
      </trkpt>
      <trkpt lat="43.73072" lon="7.34083">
        <ele>509.64</ele>
        <time>2014-06-30T17:49:18Z</time>
      </trkpt>
      <trkpt lat="43.73058" lon="7.34059">
        <ele>514.44</ele>
        <time>2014-06-30T17:49:32Z</time>
      </trkpt>
      <trkpt lat="43.73047" lon="7.34031">
        <ele>518.29</ele>
        <time>2014-06-30T17:49:45Z</time>
      </trkpt>
      <trkpt lat="43.73035" lon="7.33981">
        <ele>517.81</ele>
        <time>2014-06-30T17:50:00Z</time>
      </trkpt>
      <trkpt lat="43.73033" lon="7.33971">
        <ele>518.29</ele>
        <time>2014-06-30T17:50:03Z</time>
      </trkpt>
      <trkpt lat="43.73032" lon="7.33968">
        <ele>518.29</ele>
        <time>2014-06-30T17:50:04Z</time>
      </trkpt>
      <trkpt lat="43.73014" lon="7.3393">
        <ele>519.73</ele>
        <time>2014-06-30T17:50:18Z</time>
      </trkpt>
      <trkpt lat="43.72999" lon="7.33905">
        <ele>522.13</ele>
        <time>2014-06-30T17:50:30Z</time>
      </trkpt>
      <trkpt lat="43.72982" lon="7.3387">
        <ele>524.06</ele>
        <time>2014-06-30T17:50:43Z</time>
      </trkpt>
      <trkpt lat="43.72966" lon="7.33837">
        <ele>527.42</ele>
        <time>2014-06-30T17:50:58Z</time>
      </trkpt>
      <trkpt lat="43.72948" lon="7.33811">
        <ele>530.79</ele>
        <time>2014-06-30T17:51:12Z</time>
      </trkpt>
      <trkpt lat="43.72926" lon="7.33791">
        <ele>533.67</ele>
        <time>2014-06-30T17:51:26Z</time>
      </trkpt>
      <trkpt lat="43.72924" lon="7.33788">
        <ele>533.67</ele>
        <time>2014-06-30T17:51:28Z</time>
      </trkpt>
      <trkpt lat="43.72923" lon="7.33786">
        <ele>534.15</ele>
        <time>2014-06-30T17:51:29Z</time>
      </trkpt>
      <trkpt lat="43.72922" lon="7.33785">
        <ele>534.15</ele>
        <time>2014-06-30T17:51:30Z</time>
      </trkpt>
      <trkpt lat="43.72911" lon="7.33759">
        <ele>537.99</ele>
        <time>2014-06-30T17:51:42Z</time>
      </trkpt>
      <trkpt lat="43.72911" lon="7.33757">
        <ele>538.48</ele>
        <time>2014-06-30T17:51:43Z</time>
      </trkpt>
      <trkpt lat="43.72908" lon="7.33733">
        <ele>537.99</ele>
        <time>2014-06-30T17:51:54Z</time>
      </trkpt>
      <trkpt lat="43.7291" lon="7.3372">
        <ele>537.99</ele>
        <time>2014-06-30T17:52:12Z</time>
      </trkpt>
      <trkpt lat="43.72919" lon="7.33691">
        <ele>536.07</ele>
        <time>2014-06-30T17:52:19Z</time>
      </trkpt>
      <trkpt lat="43.72935" lon="7.33644">
        <ele>534.63</ele>
        <time>2014-06-30T17:52:31Z</time>
      </trkpt>
      <trkpt lat="43.72941" lon="7.33623">
        <ele>533.67</ele>
        <time>2014-06-30T17:52:39Z</time>
      </trkpt>
      <trkpt lat="43.72942" lon="7.33624">
        <ele>533.19</ele>
        <time>2014-06-30T17:52:51Z</time>
      </trkpt>
      <trkpt lat="43.72943" lon="7.33624">
        <ele>532.23</ele>
        <time>2014-06-30T17:53:16Z</time>
      </trkpt>
      <trkpt lat="43.72949" lon="7.33607">
        <ele>532.23</ele>
        <time>2014-06-30T17:53:30Z</time>
      </trkpt>
      <trkpt lat="43.72956" lon="7.33587">
        <ele>531.27</ele>
        <time>2014-06-30T17:53:34Z</time>
      </trkpt>
      <trkpt lat="43.72958" lon="7.33582">
        <ele>530.79</ele>
        <time>2014-06-30T17:53:35Z</time>
      </trkpt>
      <trkpt lat="43.72959" lon="7.33576">
        <ele>530.3</ele>
        <time>2014-06-30T17:53:36Z</time>
      </trkpt>
      <trkpt lat="43.72965" lon="7.33548">
        <ele>529.34</ele>
        <time>2014-06-30T17:53:40Z</time>
      </trkpt>
      <trkpt lat="43.72966" lon="7.3354">
        <ele>528.86</ele>
        <time>2014-06-30T17:53:41Z</time>
      </trkpt>
      <trkpt lat="43.72966" lon="7.33532">
        <ele>528.38</ele>
        <time>2014-06-30T17:53:42Z</time>
      </trkpt>
      <trkpt lat="43.72968" lon="7.33515">
        <ele>527.9</ele>
        <time>2014-06-30T17:53:44Z</time>
      </trkpt>
      <trkpt lat="43.72968" lon="7.33507">
        <ele>527.42</ele>
        <time>2014-06-30T17:53:45Z</time>
      </trkpt>
      <trkpt lat="43.72967" lon="7.33499">
        <ele>527.42</ele>
        <time>2014-06-30T17:53:46Z</time>
      </trkpt>
      <trkpt lat="43.72965" lon="7.33492">
        <ele>527.42</ele>
        <time>2014-06-30T17:53:47Z</time>
      </trkpt>
      <trkpt lat="43.72964" lon="7.33486">
        <ele>527.42</ele>
        <time>2014-06-30T17:53:48Z</time>
      </trkpt>
      <trkpt lat="43.72962" lon="7.33481">
        <ele>527.42</ele>
        <time>2014-06-30T17:53:49Z</time>
      </trkpt>
      <trkpt lat="43.72943" lon="7.33443">
        <ele>528.86</ele>
        <time>2014-06-30T17:53:58Z</time>
      </trkpt>
      <trkpt lat="43.72921" lon="7.33388">
        <ele>529.34</ele>
        <time>2014-06-30T17:54:10Z</time>
      </trkpt>
      <trkpt lat="43.72914" lon="7.33372">
        <ele>528.38</ele>
        <time>2014-06-30T17:54:13Z</time>
      </trkpt>
      <trkpt lat="43.72911" lon="7.33367">
        <ele>527.9</ele>
        <time>2014-06-30T17:54:14Z</time>
      </trkpt>
      <trkpt lat="43.72908" lon="7.33363">
        <ele>527.9</ele>
        <time>2014-06-30T17:54:15Z</time>
      </trkpt>
      <trkpt lat="43.72905" lon="7.3336">
        <ele>527.9</ele>
        <time>2014-06-30T17:54:16Z</time>
      </trkpt>
      <trkpt lat="43.72902" lon="7.33356">
        <ele>527.9</ele>
        <time>2014-06-30T17:54:17Z</time>
      </trkpt>
      <trkpt lat="43.72863" lon="7.33329">
        <ele>527.42</ele>
        <time>2014-06-30T17:54:30Z</time>
      </trkpt>
      <trkpt lat="43.72859" lon="7.33326">
        <ele>527.42</ele>
        <time>2014-06-30T17:54:31Z</time>
      </trkpt>
      <trkpt lat="43.72855" lon="7.33322">
        <ele>527.42</ele>
        <time>2014-06-30T17:54:32Z</time>
      </trkpt>
      <trkpt lat="43.72829" lon="7.33287">
        <ele>527.9</ele>
        <time>2014-06-30T17:54:40Z</time>
      </trkpt>
      <trkpt lat="43.72826" lon="7.33283">
        <ele>527.42</ele>
        <time>2014-06-30T17:54:41Z</time>
      </trkpt>
      <trkpt lat="43.72819" lon="7.33272">
        <ele>527.42</ele>
        <time>2014-06-30T17:54:43Z</time>
      </trkpt>
      <trkpt lat="43.72817" lon="7.33266">
        <ele>527.42</ele>
        <time>2014-06-30T17:54:44Z</time>
      </trkpt>
      <trkpt lat="43.72815" lon="7.3326">
        <ele>527.42</ele>
        <time>2014-06-30T17:54:45Z</time>
      </trkpt>
      <trkpt lat="43.72808" lon="7.33244">
        <ele>527.42</ele>
        <time>2014-06-30T17:54:48Z</time>
      </trkpt>
      <trkpt lat="43.72803" lon="7.33228">
        <ele>528.38</ele>
        <time>2014-06-30T17:54:51Z</time>
      </trkpt>
      <trkpt lat="43.72801" lon="7.33216">
        <ele>528.86</ele>
        <time>2014-06-30T17:54:53Z</time>
      </trkpt>
      <trkpt lat="43.728" lon="7.33211">
        <ele>528.86</ele>
        <time>2014-06-30T17:54:54Z</time>
      </trkpt>
      <trkpt lat="43.72793" lon="7.33141">
        <ele>529.82</ele>
        <time>2014-06-30T17:55:06Z</time>
      </trkpt>
      <trkpt lat="43.72793" lon="7.33134">
        <ele>529.34</ele>
        <time>2014-06-30T17:55:07Z</time>
      </trkpt>
      <trkpt lat="43.72793" lon="7.33127">
        <ele>529.34</ele>
        <time>2014-06-30T17:55:08Z</time>
      </trkpt>
      <trkpt lat="43.72794" lon="7.3312">
        <ele>529.34</ele>
        <time>2014-06-30T17:55:09Z</time>
      </trkpt>
      <trkpt lat="43.72795" lon="7.33112">
        <ele>528.86</ele>
        <time>2014-06-30T17:55:10Z</time>
      </trkpt>
      <trkpt lat="43.72799" lon="7.3308">
        <ele>528.38</ele>
        <time>2014-06-30T17:55:14Z</time>
      </trkpt>
      <trkpt lat="43.72799" lon="7.33074">
        <ele>528.38</ele>
        <time>2014-06-30T17:55:15Z</time>
      </trkpt>
      <trkpt lat="43.72802" lon="7.33007">
        <ele>529.34</ele>
        <time>2014-06-30T17:55:24Z</time>
      </trkpt>
      <trkpt lat="43.72803" lon="7.32999">
        <ele>529.34</ele>
        <time>2014-06-30T17:55:25Z</time>
      </trkpt>
      <trkpt lat="43.72804" lon="7.3299">
        <ele>528.86</ele>
        <time>2014-06-30T17:55:26Z</time>
      </trkpt>
      <trkpt lat="43.72806" lon="7.32982">
        <ele>528.38</ele>
        <time>2014-06-30T17:55:27Z</time>
      </trkpt>
      <trkpt lat="43.72807" lon="7.32972">
        <ele>527.42</ele>
        <time>2014-06-30T17:55:28Z</time>
      </trkpt>
      <trkpt lat="43.72814" lon="7.32887">
        <ele>525.02</ele>
        <time>2014-06-30T17:55:38Z</time>
      </trkpt>
      <trkpt lat="43.72811" lon="7.32772">
        <ele>522.61</ele>
        <time>2014-06-30T17:55:52Z</time>
      </trkpt>
      <trkpt lat="43.72803" lon="7.32736">
        <ele>522.13</ele>
        <time>2014-06-30T17:55:57Z</time>
      </trkpt>
      <trkpt lat="43.72804" lon="7.32729">
        <ele>522.61</ele>
        <time>2014-06-30T17:55:58Z</time>
      </trkpt>
      <trkpt lat="43.72805" lon="7.32722">
        <ele>522.13</ele>
        <time>2014-06-30T17:55:59Z</time>
      </trkpt>
      <trkpt lat="43.72807" lon="7.32715">
        <ele>522.13</ele>
        <time>2014-06-30T17:56:00Z</time>
      </trkpt>
      <trkpt lat="43.72809" lon="7.32709">
        <ele>522.13</ele>
        <time>2014-06-30T17:56:01Z</time>
      </trkpt>
      <trkpt lat="43.72811" lon="7.32703">
        <ele>521.65</ele>
        <time>2014-06-30T17:56:02Z</time>
      </trkpt>
      <trkpt lat="43.72813" lon="7.32696">
        <ele>521.65</ele>
        <time>2014-06-30T17:56:03Z</time>
      </trkpt>
      <trkpt lat="43.72814" lon="7.32688">
        <ele>521.65</ele>
        <time>2014-06-30T17:56:04Z</time>
      </trkpt>
      <trkpt lat="43.72815" lon="7.3268">
        <ele>521.65</ele>
        <time>2014-06-30T17:56:05Z</time>
      </trkpt>
      <trkpt lat="43.72817" lon="7.32648">
        <ele>521.65</ele>
        <time>2014-06-30T17:56:09Z</time>
      </trkpt>
      <trkpt lat="43.72804" lon="7.32594">
        <ele>522.13</ele>
        <time>2014-06-30T17:56:17Z</time>
      </trkpt>
      <trkpt lat="43.72794" lon="7.32571">
        <ele>522.61</ele>
        <time>2014-06-30T17:56:21Z</time>
      </trkpt>
      <trkpt lat="43.72782" lon="7.32541">
        <ele>521.65</ele>
        <time>2014-06-30T17:56:26Z</time>
      </trkpt>
      <trkpt lat="43.7278" lon="7.32534">
        <ele>521.17</ele>
        <time>2014-06-30T17:56:27Z</time>
      </trkpt>
      <trkpt lat="43.72777" lon="7.32509">
        <ele>520.21</ele>
        <time>2014-06-30T17:56:30Z</time>
      </trkpt>
      <trkpt lat="43.72778" lon="7.32501">
        <ele>519.73</ele>
        <time>2014-06-30T17:56:31Z</time>
      </trkpt>
      <trkpt lat="43.72779" lon="7.32495">
        <ele>519.73</ele>
        <time>2014-06-30T17:56:32Z</time>
      </trkpt>
      <trkpt lat="43.72781" lon="7.32489">
        <ele>520.21</ele>
        <time>2014-06-30T17:56:33Z</time>
      </trkpt>
      <trkpt lat="43.72782" lon="7.32484">
        <ele>520.21</ele>
        <time>2014-06-30T17:56:34Z</time>
      </trkpt>
      <trkpt lat="43.72784" lon="7.32479">
        <ele>520.69</ele>
        <time>2014-06-30T17:56:35Z</time>
      </trkpt>
      <trkpt lat="43.728" lon="7.32435">
        <ele>522.61</ele>
        <time>2014-06-30T17:56:46Z</time>
      </trkpt>
      <trkpt lat="43.72809" lon="7.32387">
        <ele>523.58</ele>
        <time>2014-06-30T17:56:59Z</time>
      </trkpt>
      <trkpt lat="43.728" lon="7.32318">
        <ele>525.98</ele>
        <time>2014-06-30T17:57:12Z</time>
      </trkpt>
      <trkpt lat="43.72782" lon="7.32275">
        <ele>529.34</ele>
        <time>2014-06-30T17:57:24Z</time>
      </trkpt>
      <trkpt lat="43.72758" lon="7.32256">
        <ele>531.27</ele>
        <time>2014-06-30T17:57:36Z</time>
      </trkpt>
      <trkpt lat="43.72736" lon="7.32254">
        <ele>531.75</ele>
        <time>2014-06-30T17:57:49Z</time>
      </trkpt>
      <trkpt lat="43.72713" lon="7.32248">
        <ele>530.79</ele>
        <time>2014-06-30T17:58:03Z</time>
      </trkpt>
      <trkpt lat="43.72689" lon="7.32241">
        <ele>533.19</ele>
        <time>2014-06-30T17:58:18Z</time>
      </trkpt>
      <trkpt lat="43.72671" lon="7.32239">
        <ele>537.03</ele>
        <time>2014-06-30T17:58:31Z</time>
      </trkpt>
      <trkpt lat="43.72649" lon="7.32225">
        <ele>539.44</ele>
        <time>2014-06-30T17:58:45Z</time>
      </trkpt>
      <trkpt lat="43.72631" lon="7.32206">
        <ele>544.72</ele>
        <time>2014-06-30T17:58:58Z</time>
      </trkpt>
      <trkpt lat="43.72605" lon="7.32189">
        <ele>546.65</ele>
        <time>2014-06-30T17:59:13Z</time>
      </trkpt>
      <trkpt lat="43.72578" lon="7.32187">
        <ele>548.09</ele>
        <time>2014-06-30T17:59:25Z</time>
      </trkpt>
      <trkpt lat="43.7257" lon="7.3219">
        <ele>549.53</ele>
        <time>2014-06-30T17:59:36Z</time>
      </trkpt>
      <trkpt lat="43.72569" lon="7.32189">
        <ele>550.49</ele>
        <time>2014-06-30T18:00:09Z</time>
      </trkpt>
      <trkpt lat="43.7256" lon="7.32192">
        <ele>550.97</ele>
        <time>2014-06-30T18:00:28Z</time>
      </trkpt>
      <trkpt lat="43.72531" lon="7.32208">
        <ele>550.97</ele>
        <time>2014-06-30T18:00:39Z</time>
      </trkpt>
      <trkpt lat="43.72511" lon="7.3226">
        <ele>552.41</ele>
        <time>2014-06-30T18:00:53Z</time>
      </trkpt>
      <trkpt lat="43.725" lon="7.32299">
        <ele>553.86</ele>
        <time>2014-06-30T18:01:04Z</time>
      </trkpt>
      <trkpt lat="43.72502" lon="7.32305">
        <ele>554.82</ele>
        <time>2014-06-30T18:01:07Z</time>
      </trkpt>
      <trkpt lat="43.72501" lon="7.32302">
        <ele>554.82</ele>
        <time>2014-06-30T18:01:15Z</time>
      </trkpt>
      <trkpt lat="43.72501" lon="7.32305">
        <ele>554.34</ele>
        <time>2014-06-30T18:01:21Z</time>
      </trkpt>
      <trkpt lat="43.72502" lon="7.32315">
        <ele>552.9</ele>
        <time>2014-06-30T18:01:26Z</time>
      </trkpt>
      <trkpt lat="43.72487" lon="7.32328">
        <ele>552.41</ele>
        <time>2014-06-30T18:01:35Z</time>
      </trkpt>
      <trkpt lat="43.7248" lon="7.32348">
        <ele>552.9</ele>
        <time>2014-06-30T18:01:41Z</time>
      </trkpt>
      <trkpt lat="43.72449" lon="7.32395">
        <ele>557.7</ele>
        <time>2014-06-30T18:01:56Z</time>
      </trkpt>
      <trkpt lat="43.72429" lon="7.32415">
        <ele>560.59</ele>
        <time>2014-06-30T18:02:08Z</time>
      </trkpt>
      <trkpt lat="43.72409" lon="7.32441">
        <ele>562.99</ele>
        <time>2014-06-30T18:02:22Z</time>
      </trkpt>
      <trkpt lat="43.72379" lon="7.32463">
        <ele>565.39</ele>
        <time>2014-06-30T18:02:35Z</time>
      </trkpt>
      <trkpt lat="43.7237" lon="7.32471">
        <ele>565.39</ele>
        <time>2014-06-30T18:02:46Z</time>
      </trkpt>
      <trkpt lat="43.7237" lon="7.32471">
        <ele>567.8</ele>
        <time>2014-06-30T18:03:12Z</time>
      </trkpt>
      <trkpt lat="43.72369" lon="7.32471">
        <ele>568.76</ele>
        <time>2014-06-30T18:03:39Z</time>
      </trkpt>
      <trkpt lat="43.72368" lon="7.32472">
        <ele>567.8</ele>
        <time>2014-06-30T18:04:05Z</time>
      </trkpt>
      <trkpt lat="43.72354" lon="7.32491">
        <ele>566.35</ele>
        <time>2014-06-30T18:04:12Z</time>
      </trkpt>
      <trkpt lat="43.72351" lon="7.32496">
        <ele>565.87</ele>
        <time>2014-06-30T18:04:13Z</time>
      </trkpt>
      <trkpt lat="43.72348" lon="7.32501">
        <ele>565.39</ele>
        <time>2014-06-30T18:04:14Z</time>
      </trkpt>
      <trkpt lat="43.72342" lon="7.32512">
        <ele>564.43</ele>
        <time>2014-06-30T18:04:16Z</time>
      </trkpt>
      <trkpt lat="43.7234" lon="7.32519">
        <ele>563.95</ele>
        <time>2014-06-30T18:04:17Z</time>
      </trkpt>
      <trkpt lat="43.7234" lon="7.32525">
        <ele>562.99</ele>
        <time>2014-06-30T18:04:18Z</time>
      </trkpt>
      <trkpt lat="43.7234" lon="7.32532">
        <ele>561.55</ele>
        <time>2014-06-30T18:04:20Z</time>
      </trkpt>
      <trkpt lat="43.72339" lon="7.32533">
        <ele>560.59</ele>
        <time>2014-06-30T18:04:21Z</time>
      </trkpt>
      <trkpt lat="43.7234" lon="7.32536">
        <ele>558.18</ele>
        <time>2014-06-30T18:04:25Z</time>
      </trkpt>
      <trkpt lat="43.72341" lon="7.32537">
        <ele>557.7</ele>
        <time>2014-06-30T18:04:26Z</time>
      </trkpt>
      <trkpt lat="43.72343" lon="7.32539">
        <ele>557.22</ele>
        <time>2014-06-30T18:04:27Z</time>
      </trkpt>
      <trkpt lat="43.72356" lon="7.32565">
        <ele>553.38</ele>
        <time>2014-06-30T18:04:35Z</time>
      </trkpt>
      <trkpt lat="43.72387" lon="7.32653">
        <ele>551.93</ele>
        <time>2014-06-30T18:04:45Z</time>
      </trkpt>
      <trkpt lat="43.7239" lon="7.32662">
        <ele>551.93</ele>
        <time>2014-06-30T18:04:46Z</time>
      </trkpt>
      <trkpt lat="43.72404" lon="7.32693">
        <ele>550.97</ele>
        <time>2014-06-30T18:04:51Z</time>
      </trkpt>
      <trkpt lat="43.72403" lon="7.32697">
        <ele>550.49</ele>
        <time>2014-06-30T18:04:52Z</time>
      </trkpt>
      <trkpt lat="43.72402" lon="7.32698">
        <ele>550.49</ele>
        <time>2014-06-30T18:04:53Z</time>
      </trkpt>
      <trkpt lat="43.72378" lon="7.32678">
        <ele>550.01</ele>
        <time>2014-06-30T18:05:01Z</time>
      </trkpt>
      <trkpt lat="43.72346" lon="7.32635">
        <ele>551.93</ele>
        <time>2014-06-30T18:05:13Z</time>
      </trkpt>
      <trkpt lat="43.72343" lon="7.32631">
        <ele>552.41</ele>
        <time>2014-06-30T18:05:14Z</time>
      </trkpt>
      <trkpt lat="43.72341" lon="7.32627">
        <ele>552.41</ele>
        <time>2014-06-30T18:05:15Z</time>
      </trkpt>
      <trkpt lat="43.72322" lon="7.3259">
        <ele>556.26</ele>
        <time>2014-06-30T18:05:24Z</time>
      </trkpt>
      <trkpt lat="43.72301" lon="7.32564">
        <ele>556.26</ele>
        <time>2014-06-30T18:05:28Z</time>
      </trkpt>
      <trkpt lat="43.72297" lon="7.32556">
        <ele>556.26</ele>
        <time>2014-06-30T18:05:29Z</time>
      </trkpt>
      <trkpt lat="43.72295" lon="7.32549">
        <ele>556.26</ele>
        <time>2014-06-30T18:05:30Z</time>
      </trkpt>
      <trkpt lat="43.72294" lon="7.32544">
        <ele>555.78</ele>
        <time>2014-06-30T18:05:31Z</time>
      </trkpt>
      <trkpt lat="43.72293" lon="7.3254">
        <ele>555.3</ele>
        <time>2014-06-30T18:05:32Z</time>
      </trkpt>
      <trkpt lat="43.72293" lon="7.32534">
        <ele>555.3</ele>
        <time>2014-06-30T18:05:33Z</time>
      </trkpt>
      <trkpt lat="43.72293" lon="7.32528">
        <ele>555.78</ele>
        <time>2014-06-30T18:05:34Z</time>
      </trkpt>
      <trkpt lat="43.72294" lon="7.32521">
        <ele>555.78</ele>
        <time>2014-06-30T18:05:35Z</time>
      </trkpt>
      <trkpt lat="43.72295" lon="7.32514">
        <ele>555.78</ele>
        <time>2014-06-30T18:05:36Z</time>
      </trkpt>
      <trkpt lat="43.72298" lon="7.32506">
        <ele>555.78</ele>
        <time>2014-06-30T18:05:37Z</time>
      </trkpt>
      <trkpt lat="43.72301" lon="7.32499">
        <ele>555.78</ele>
        <time>2014-06-30T18:05:38Z</time>
      </trkpt>
      <trkpt lat="43.72303" lon="7.32491">
        <ele>555.78</ele>
        <time>2014-06-30T18:05:39Z</time>
      </trkpt>
      <trkpt lat="43.72304" lon="7.32485">
        <ele>555.78</ele>
        <time>2014-06-30T18:05:40Z</time>
      </trkpt>
      <trkpt lat="43.72304" lon="7.32479">
        <ele>555.3</ele>
        <time>2014-06-30T18:05:41Z</time>
      </trkpt>
      <trkpt lat="43.72304" lon="7.32474">
        <ele>554.82</ele>
        <time>2014-06-30T18:05:42Z</time>
      </trkpt>
      <trkpt lat="43.72303" lon="7.32471">
        <ele>553.86</ele>
        <time>2014-06-30T18:05:43Z</time>
      </trkpt>
      <trkpt lat="43.72301" lon="7.32467">
        <ele>552.9</ele>
        <time>2014-06-30T18:05:44Z</time>
      </trkpt>
      <trkpt lat="43.72298" lon="7.32462">
        <ele>552.41</ele>
        <time>2014-06-30T18:05:45Z</time>
      </trkpt>
      <trkpt lat="43.72295" lon="7.32457">
        <ele>551.93</ele>
        <time>2014-06-30T18:05:46Z</time>
      </trkpt>
      <trkpt lat="43.72291" lon="7.32452">
        <ele>551.93</ele>
        <time>2014-06-30T18:05:47Z</time>
      </trkpt>
      <trkpt lat="43.72281" lon="7.32438">
        <ele>551.45</ele>
        <time>2014-06-30T18:05:50Z</time>
      </trkpt>
      <trkpt lat="43.72279" lon="7.32432">
        <ele>551.45</ele>
        <time>2014-06-30T18:05:51Z</time>
      </trkpt>
      <trkpt lat="43.72277" lon="7.32427">
        <ele>551.45</ele>
        <time>2014-06-30T18:05:52Z</time>
      </trkpt>
      <trkpt lat="43.72276" lon="7.32422">
        <ele>551.45</ele>
        <time>2014-06-30T18:05:53Z</time>
      </trkpt>
      <trkpt lat="43.72275" lon="7.32417">
        <ele>550.97</ele>
        <time>2014-06-30T18:05:54Z</time>
      </trkpt>
      <trkpt lat="43.72264" lon="7.32381">
        <ele>551.45</ele>
        <time>2014-06-30T18:06:01Z</time>
      </trkpt>
      <trkpt lat="43.72263" lon="7.32376">
        <ele>551.93</ele>
        <time>2014-06-30T18:06:02Z</time>
      </trkpt>
      <trkpt lat="43.72255" lon="7.32353">
        <ele>551.93</ele>
        <time>2014-06-30T18:06:09Z</time>
      </trkpt>
      <trkpt lat="43.72253" lon="7.32352">
        <ele>552.41</ele>
        <time>2014-06-30T18:06:10Z</time>
      </trkpt>
      <trkpt lat="43.72251" lon="7.3235">
        <ele>552.9</ele>
        <time>2014-06-30T18:06:11Z</time>
      </trkpt>
      <trkpt lat="43.7225" lon="7.32347">
        <ele>552.9</ele>
        <time>2014-06-30T18:06:12Z</time>
      </trkpt>
      <trkpt lat="43.72247" lon="7.32344">
        <ele>553.38</ele>
        <time>2014-06-30T18:06:13Z</time>
      </trkpt>
      <trkpt lat="43.72245" lon="7.32342">
        <ele>553.38</ele>
        <time>2014-06-30T18:06:14Z</time>
      </trkpt>
      <trkpt lat="43.72242" lon="7.32341">
        <ele>553.38</ele>
        <time>2014-06-30T18:06:15Z</time>
      </trkpt>
      <trkpt lat="43.7224" lon="7.32339">
        <ele>553.38</ele>
        <time>2014-06-30T18:06:16Z</time>
      </trkpt>
      <trkpt lat="43.72238" lon="7.32336">
        <ele>553.38</ele>
        <time>2014-06-30T18:06:17Z</time>
      </trkpt>
      <trkpt lat="43.72236" lon="7.32334">
        <ele>553.38</ele>
        <time>2014-06-30T18:06:18Z</time>
      </trkpt>
      <trkpt lat="43.72233" lon="7.32333">
        <ele>552.9</ele>
        <time>2014-06-30T18:06:19Z</time>
      </trkpt>
      <trkpt lat="43.72231" lon="7.32331">
        <ele>552.9</ele>
        <time>2014-06-30T18:06:20Z</time>
      </trkpt>
      <trkpt lat="43.72209" lon="7.32309">
        <ele>548.09</ele>
        <time>2014-06-30T18:06:30Z</time>
      </trkpt>
      <trkpt lat="43.722" lon="7.32297">
        <ele>546.17</ele>
        <time>2014-06-30T18:06:35Z</time>
      </trkpt>
      <trkpt lat="43.72194" lon="7.3226">
        <ele>548.09</ele>
        <time>2014-06-30T18:06:45Z</time>
      </trkpt>
      <trkpt lat="43.72193" lon="7.32222">
        <ele>551.93</ele>
        <time>2014-06-30T18:06:57Z</time>
      </trkpt>
      <trkpt lat="43.72186" lon="7.3219">
        <ele>556.74</ele>
        <time>2014-06-30T18:07:09Z</time>
      </trkpt>
      <trkpt lat="43.72169" lon="7.32166">
        <ele>553.86</ele>
        <time>2014-06-30T18:07:18Z</time>
      </trkpt>
      <trkpt lat="43.72165" lon="7.32163">
        <ele>553.38</ele>
        <time>2014-06-30T18:07:19Z</time>
      </trkpt>
      <trkpt lat="43.7216" lon="7.32161">
        <ele>553.38</ele>
        <time>2014-06-30T18:07:20Z</time>
      </trkpt>
      <trkpt lat="43.72137" lon="7.32151">
        <ele>551.45</ele>
        <time>2014-06-30T18:07:27Z</time>
      </trkpt>
      <trkpt lat="43.72134" lon="7.32152">
        <ele>551.45</ele>
        <time>2014-06-30T18:07:28Z</time>
      </trkpt>
      <trkpt lat="43.72131" lon="7.32155">
        <ele>550.97</ele>
        <time>2014-06-30T18:07:29Z</time>
      </trkpt>
      <trkpt lat="43.72104" lon="7.3219">
        <ele>549.05</ele>
        <time>2014-06-30T18:07:41Z</time>
      </trkpt>
      <trkpt lat="43.72101" lon="7.32194">
        <ele>549.05</ele>
        <time>2014-06-30T18:07:42Z</time>
      </trkpt>
      <trkpt lat="43.7209" lon="7.32208">
        <ele>549.05</ele>
        <time>2014-06-30T18:07:45Z</time>
      </trkpt>
      <trkpt lat="43.72086" lon="7.32211">
        <ele>548.57</ele>
        <time>2014-06-30T18:07:46Z</time>
      </trkpt>
      <trkpt lat="43.72081" lon="7.32214">
        <ele>548.57</ele>
        <time>2014-06-30T18:07:47Z</time>
      </trkpt>
      <trkpt lat="43.72079" lon="7.32214">
        <ele>548.57</ele>
        <time>2014-06-30T18:07:48Z</time>
      </trkpt>
      <trkpt lat="43.72076" lon="7.32213">
        <ele>548.57</ele>
        <time>2014-06-30T18:07:49Z</time>
      </trkpt>
      <trkpt lat="43.72074" lon="7.32212">
        <ele>548.57</ele>
        <time>2014-06-30T18:07:50Z</time>
      </trkpt>
      <trkpt lat="43.72071" lon="7.32212">
        <ele>548.57</ele>
        <time>2014-06-30T18:07:51Z</time>
      </trkpt>
      <trkpt lat="43.72067" lon="7.32215">
        <ele>548.57</ele>
        <time>2014-06-30T18:07:52Z</time>
      </trkpt>
      <trkpt lat="43.72065" lon="7.32217">
        <ele>549.05</ele>
        <time>2014-06-30T18:07:53Z</time>
      </trkpt>
      <trkpt lat="43.72063" lon="7.32219">
        <ele>549.05</ele>
        <time>2014-06-30T18:07:54Z</time>
      </trkpt>
      <trkpt lat="43.7206" lon="7.32221">
        <ele>549.05</ele>
        <time>2014-06-30T18:07:55Z</time>
      </trkpt>
      <trkpt lat="43.72058" lon="7.32221">
        <ele>549.05</ele>
        <time>2014-06-30T18:07:56Z</time>
      </trkpt>
      <trkpt lat="43.72055" lon="7.32219">
        <ele>548.57</ele>
        <time>2014-06-30T18:07:57Z</time>
      </trkpt>
      <trkpt lat="43.72041" lon="7.32215">
        <ele>547.61</ele>
        <time>2014-06-30T18:08:02Z</time>
      </trkpt>
      <trkpt lat="43.72038" lon="7.32212">
        <ele>547.13</ele>
        <time>2014-06-30T18:08:03Z</time>
      </trkpt>
      <trkpt lat="43.72036" lon="7.32209">
        <ele>547.13</ele>
        <time>2014-06-30T18:08:04Z</time>
      </trkpt>
      <trkpt lat="43.72033" lon="7.32204">
        <ele>546.65</ele>
        <time>2014-06-30T18:08:05Z</time>
      </trkpt>
      <trkpt lat="43.72031" lon="7.322">
        <ele>546.17</ele>
        <time>2014-06-30T18:08:06Z</time>
      </trkpt>
      <trkpt lat="43.72027" lon="7.32197">
        <ele>546.17</ele>
        <time>2014-06-30T18:08:07Z</time>
      </trkpt>
      <trkpt lat="43.72023" lon="7.32195">
        <ele>545.2</ele>
        <time>2014-06-30T18:08:08Z</time>
      </trkpt>
      <trkpt lat="43.72018" lon="7.32193">
        <ele>544.24</ele>
        <time>2014-06-30T18:08:09Z</time>
      </trkpt>
      <trkpt lat="43.72016" lon="7.32189">
        <ele>543.76</ele>
        <time>2014-06-30T18:08:10Z</time>
      </trkpt>
      <trkpt lat="43.72015" lon="7.32185">
        <ele>542.8</ele>
        <time>2014-06-30T18:08:11Z</time>
      </trkpt>
      <trkpt lat="43.72015" lon="7.32181">
        <ele>542.32</ele>
        <time>2014-06-30T18:08:12Z</time>
      </trkpt>
      <trkpt lat="43.72017" lon="7.32176">
        <ele>541.36</ele>
        <time>2014-06-30T18:08:13Z</time>
      </trkpt>
      <trkpt lat="43.72019" lon="7.3217">
        <ele>540.4</ele>
        <time>2014-06-30T18:08:14Z</time>
      </trkpt>
      <trkpt lat="43.72025" lon="7.32157">
        <ele>538.48</ele>
        <time>2014-06-30T18:08:16Z</time>
      </trkpt>
      <trkpt lat="43.72026" lon="7.32151">
        <ele>537.51</ele>
        <time>2014-06-30T18:08:17Z</time>
      </trkpt>
      <trkpt lat="43.72028" lon="7.32146">
        <ele>536.07</ele>
        <time>2014-06-30T18:08:18Z</time>
      </trkpt>
      <trkpt lat="43.7203" lon="7.32141">
        <ele>535.11</ele>
        <time>2014-06-30T18:08:19Z</time>
      </trkpt>
      <trkpt lat="43.72031" lon="7.32135">
        <ele>534.15</ele>
        <time>2014-06-30T18:08:20Z</time>
      </trkpt>
      <trkpt lat="43.7203" lon="7.32128">
        <ele>533.19</ele>
        <time>2014-06-30T18:08:21Z</time>
      </trkpt>
      <trkpt lat="43.72027" lon="7.32122">
        <ele>531.75</ele>
        <time>2014-06-30T18:08:22Z</time>
      </trkpt>
      <trkpt lat="43.72024" lon="7.32116">
        <ele>530.79</ele>
        <time>2014-06-30T18:08:23Z</time>
      </trkpt>
      <trkpt lat="43.72022" lon="7.3211">
        <ele>529.34</ele>
        <time>2014-06-30T18:08:24Z</time>
      </trkpt>
      <trkpt lat="43.72021" lon="7.32103">
        <ele>528.38</ele>
        <time>2014-06-30T18:08:25Z</time>
      </trkpt>
      <trkpt lat="43.7202" lon="7.32096">
        <ele>526.94</ele>
        <time>2014-06-30T18:08:26Z</time>
      </trkpt>
      <trkpt lat="43.72018" lon="7.32089">
        <ele>525.5</ele>
        <time>2014-06-30T18:08:27Z</time>
      </trkpt>
      <trkpt lat="43.72017" lon="7.32082">
        <ele>524.54</ele>
        <time>2014-06-30T18:08:28Z</time>
      </trkpt>
      <trkpt lat="43.72015" lon="7.32076">
        <ele>523.09</ele>
        <time>2014-06-30T18:08:29Z</time>
      </trkpt>
      <trkpt lat="43.72015" lon="7.3207">
        <ele>521.65</ele>
        <time>2014-06-30T18:08:30Z</time>
      </trkpt>
      <trkpt lat="43.72016" lon="7.32064">
        <ele>520.69</ele>
        <time>2014-06-30T18:08:31Z</time>
      </trkpt>
      <trkpt lat="43.72016" lon="7.32058">
        <ele>519.25</ele>
        <time>2014-06-30T18:08:32Z</time>
      </trkpt>
      <trkpt lat="43.72014" lon="7.32051">
        <ele>518.29</ele>
        <time>2014-06-30T18:08:33Z</time>
      </trkpt>
      <trkpt lat="43.72012" lon="7.32046">
        <ele>516.85</ele>
        <time>2014-06-30T18:08:34Z</time>
      </trkpt>
      <trkpt lat="43.71997" lon="7.32022">
        <ele>506.75</ele>
        <time>2014-06-30T18:08:41Z</time>
      </trkpt>
      <trkpt lat="43.71993" lon="7.32012">
        <ele>503.39</ele>
        <time>2014-06-30T18:08:43Z</time>
      </trkpt>
      <trkpt lat="43.71978" lon="7.31991">
        <ele>491.85</ele>
        <time>2014-06-30T18:08:52Z</time>
      </trkpt>
      <trkpt lat="43.71969" lon="7.31979">
        <ele>490.41</ele>
        <time>2014-06-30T18:08:58Z</time>
      </trkpt>
      <trkpt lat="43.71956" lon="7.31965">
        <ele>485.12</ele>
        <time>2014-06-30T18:09:04Z</time>
      </trkpt>
      <trkpt lat="43.71949" lon="7.31962">
        <ele>482.72</ele>
        <time>2014-06-30T18:09:06Z</time>
      </trkpt>
      <trkpt lat="43.71942" lon="7.31954">
        <ele>479.35</ele>
        <time>2014-06-30T18:09:09Z</time>
      </trkpt>
      <trkpt lat="43.71941" lon="7.31932">
        <ele>473.11</ele>
        <time>2014-06-30T18:09:14Z</time>
      </trkpt>
      <trkpt lat="43.71918" lon="7.31934">
        <ele>464.93</ele>
        <time>2014-06-30T18:09:21Z</time>
      </trkpt>
      <trkpt lat="43.71904" lon="7.31933">
        <ele>460.61</ele>
        <time>2014-06-30T18:09:24Z</time>
      </trkpt>
      <trkpt lat="43.71893" lon="7.31931">
        <ele>457.24</ele>
        <time>2014-06-30T18:09:27Z</time>
      </trkpt>
      <trkpt lat="43.7189" lon="7.31933">
        <ele>456.76</ele>
        <time>2014-06-30T18:09:28Z</time>
      </trkpt>
      <trkpt lat="43.71887" lon="7.31933">
        <ele>455.8</ele>
        <time>2014-06-30T18:09:29Z</time>
      </trkpt>
      <trkpt lat="43.71885" lon="7.31931">
        <ele>454.84</ele>
        <time>2014-06-30T18:09:30Z</time>
      </trkpt>
      <trkpt lat="43.71884" lon="7.31929">
        <ele>455.8</ele>
        <time>2014-06-30T18:09:31Z</time>
      </trkpt>
      <trkpt lat="43.71884" lon="7.31928">
        <ele>457.72</ele>
        <time>2014-06-30T18:09:32Z</time>
      </trkpt>
      <trkpt lat="43.71885" lon="7.31925">
        <ele>459.17</ele>
        <time>2014-06-30T18:09:33Z</time>
      </trkpt>
      <trkpt lat="43.71888" lon="7.31921">
        <ele>460.13</ele>
        <time>2014-06-30T18:09:34Z</time>
      </trkpt>
      <trkpt lat="43.71891" lon="7.31918">
        <ele>460.13</ele>
        <time>2014-06-30T18:09:35Z</time>
      </trkpt>
      <trkpt lat="43.71894" lon="7.31916">
        <ele>460.13</ele>
        <time>2014-06-30T18:09:36Z</time>
      </trkpt>
      <trkpt lat="43.71897" lon="7.31915">
        <ele>460.13</ele>
        <time>2014-06-30T18:09:37Z</time>
      </trkpt>
      <trkpt lat="43.719" lon="7.31913">
        <ele>460.13</ele>
        <time>2014-06-30T18:09:38Z</time>
      </trkpt>
      <trkpt lat="43.71903" lon="7.31909">
        <ele>459.17</ele>
        <time>2014-06-30T18:09:39Z</time>
      </trkpt>
      <trkpt lat="43.71905" lon="7.31904">
        <ele>458.21</ele>
        <time>2014-06-30T18:09:40Z</time>
      </trkpt>
      <trkpt lat="43.71906" lon="7.31899">
        <ele>457.72</ele>
        <time>2014-06-30T18:09:41Z</time>
      </trkpt>
      <trkpt lat="43.71907" lon="7.31891">
        <ele>456.76</ele>
        <time>2014-06-30T18:09:42Z</time>
      </trkpt>
      <trkpt lat="43.71905" lon="7.31883">
        <ele>456.28</ele>
        <time>2014-06-30T18:09:43Z</time>
      </trkpt>
      <trkpt lat="43.71904" lon="7.31878">
        <ele>455.8</ele>
        <time>2014-06-30T18:09:44Z</time>
      </trkpt>
      <trkpt lat="43.71903" lon="7.31873">
        <ele>455.32</ele>
        <time>2014-06-30T18:09:45Z</time>
      </trkpt>
      <trkpt lat="43.71902" lon="7.31868">
        <ele>454.36</ele>
        <time>2014-06-30T18:09:46Z</time>
      </trkpt>
      <trkpt lat="43.71901" lon="7.31861">
        <ele>452.92</ele>
        <time>2014-06-30T18:09:49Z</time>
      </trkpt>
      <trkpt lat="43.71899" lon="7.31857">
        <ele>451.96</ele>
        <time>2014-06-30T18:09:56Z</time>
      </trkpt>
      <trkpt lat="43.719" lon="7.3186">
        <ele>450.52</ele>
        <time>2014-06-30T18:10:05Z</time>
      </trkpt>
      <trkpt lat="43.71902" lon="7.31866">
        <ele>451.96</ele>
        <time>2014-06-30T18:10:16Z</time>
      </trkpt>
      <trkpt lat="43.71905" lon="7.31868">
        <ele>455.32</ele>
        <time>2014-06-30T18:10:49Z</time>
      </trkpt>
      <trkpt lat="43.71905" lon="7.3187">
        <ele>459.65</ele>
        <time>2014-06-30T18:11:23Z</time>
      </trkpt>
      <trkpt lat="43.71905" lon="7.31869">
        <ele>462.05</ele>
        <time>2014-06-30T18:11:48Z</time>
      </trkpt>
      <trkpt lat="43.71904" lon="7.31867">
        <ele>462.53</ele>
        <time>2014-06-30T18:12:02Z</time>
      </trkpt>
      <trkpt lat="43.71903" lon="7.31863">
        <ele>464.93</ele>
        <time>2014-06-30T18:12:24Z</time>
      </trkpt>
      <trkpt lat="43.71902" lon="7.31858">
        <ele>464.45</ele>
        <time>2014-06-30T18:12:26Z</time>
      </trkpt>
      <trkpt lat="43.71897" lon="7.31843">
        <ele>460.61</ele>
        <time>2014-06-30T18:12:31Z</time>
      </trkpt>
      <trkpt lat="43.71887" lon="7.3183">
        <ele>455.8</ele>
        <time>2014-06-30T18:12:41Z</time>
      </trkpt>
      <trkpt lat="43.71882" lon="7.31822">
        <ele>455.8</ele>
        <time>2014-06-30T18:13:15Z</time>
      </trkpt>
      <trkpt lat="43.71882" lon="7.3182">
        <ele>457.72</ele>
        <time>2014-06-30T18:13:35Z</time>
      </trkpt>
      <trkpt lat="43.71881" lon="7.31818">
        <ele>458.21</ele>
        <time>2014-06-30T18:13:36Z</time>
      </trkpt>
      <trkpt lat="43.7188" lon="7.31815">
        <ele>458.21</ele>
        <time>2014-06-30T18:13:37Z</time>
      </trkpt>
      <trkpt lat="43.71879" lon="7.31813">
        <ele>457.72</ele>
        <time>2014-06-30T18:13:38Z</time>
      </trkpt>
      <trkpt lat="43.71877" lon="7.3181">
        <ele>456.76</ele>
        <time>2014-06-30T18:13:39Z</time>
      </trkpt>
      <trkpt lat="43.71875" lon="7.31808">
        <ele>456.28</ele>
        <time>2014-06-30T18:13:40Z</time>
      </trkpt>
      <trkpt lat="43.71861" lon="7.31793">
        <ele>449.07</ele>
        <time>2014-06-30T18:13:47Z</time>
      </trkpt>
      <trkpt lat="43.71855" lon="7.31788">
        <ele>444.75</ele>
        <time>2014-06-30T18:13:51Z</time>
      </trkpt>
      <trkpt lat="43.71852" lon="7.31786">
        <ele>443.79</ele>
        <time>2014-06-30T18:13:52Z</time>
      </trkpt>
      <trkpt lat="43.7185" lon="7.31785">
        <ele>442.82</ele>
        <time>2014-06-30T18:13:53Z</time>
      </trkpt>
      <trkpt lat="43.71848" lon="7.31785">
        <ele>441.38</ele>
        <time>2014-06-30T18:13:54Z</time>
      </trkpt>
      <trkpt lat="43.71846" lon="7.31784">
        <ele>440.42</ele>
        <time>2014-06-30T18:13:55Z</time>
      </trkpt>
      <trkpt lat="43.71844" lon="7.31783">
        <ele>438.98</ele>
        <time>2014-06-30T18:13:56Z</time>
      </trkpt>
      <trkpt lat="43.71843" lon="7.31782">
        <ele>438.02</ele>
        <time>2014-06-30T18:13:57Z</time>
      </trkpt>
      <trkpt lat="43.71841" lon="7.31781">
        <ele>437.06</ele>
        <time>2014-06-30T18:13:58Z</time>
      </trkpt>
      <trkpt lat="43.71834" lon="7.3178">
        <ele>432.73</ele>
        <time>2014-06-30T18:14:08Z</time>
      </trkpt>
      <trkpt lat="43.71832" lon="7.31779">
        <ele>431.77</ele>
        <time>2014-06-30T18:14:10Z</time>
      </trkpt>
      <trkpt lat="43.71829" lon="7.31776">
        <ele>431.29</ele>
        <time>2014-06-30T18:14:12Z</time>
      </trkpt>
      <trkpt lat="43.71828" lon="7.31774">
        <ele>430.81</ele>
        <time>2014-06-30T18:14:13Z</time>
      </trkpt>
      <trkpt lat="43.71825" lon="7.31773">
        <ele>430.33</ele>
        <time>2014-06-30T18:14:14Z</time>
      </trkpt>
      <trkpt lat="43.71822" lon="7.31771">
        <ele>429.85</ele>
        <time>2014-06-30T18:14:15Z</time>
      </trkpt>
      <trkpt lat="43.71819" lon="7.31768">
        <ele>429.37</ele>
        <time>2014-06-30T18:14:16Z</time>
      </trkpt>
      <trkpt lat="43.71801" lon="7.31759">
        <ele>426.48</ele>
        <time>2014-06-30T18:14:22Z</time>
      </trkpt>
      <trkpt lat="43.71797" lon="7.31758">
        <ele>426</ele>
        <time>2014-06-30T18:14:23Z</time>
      </trkpt>
      <trkpt lat="43.71793" lon="7.3176">
        <ele>426</ele>
        <time>2014-06-30T18:14:24Z</time>
      </trkpt>
      <trkpt lat="43.71791" lon="7.31764">
        <ele>426</ele>
        <time>2014-06-30T18:14:25Z</time>
      </trkpt>
      <trkpt lat="43.71789" lon="7.31768">
        <ele>426</ele>
        <time>2014-06-30T18:14:26Z</time>
      </trkpt>
      <trkpt lat="43.71788" lon="7.31772">
        <ele>426</ele>
        <time>2014-06-30T18:14:27Z</time>
      </trkpt>
      <trkpt lat="43.71786" lon="7.31777">
        <ele>425.52</ele>
        <time>2014-06-30T18:14:28Z</time>
      </trkpt>
      <trkpt lat="43.71784" lon="7.31782">
        <ele>425.52</ele>
        <time>2014-06-30T18:14:29Z</time>
      </trkpt>
      <trkpt lat="43.71783" lon="7.31786">
        <ele>425.04</ele>
        <time>2014-06-30T18:14:30Z</time>
      </trkpt>
      <trkpt lat="43.71781" lon="7.3179">
        <ele>425.04</ele>
        <time>2014-06-30T18:14:31Z</time>
      </trkpt>
      <trkpt lat="43.71779" lon="7.31792">
        <ele>425.52</ele>
        <time>2014-06-30T18:14:32Z</time>
      </trkpt>
      <trkpt lat="43.71778" lon="7.31793">
        <ele>425.52</ele>
        <time>2014-06-30T18:14:33Z</time>
      </trkpt>
      <trkpt lat="43.71777" lon="7.31791">
        <ele>425.52</ele>
        <time>2014-06-30T18:14:34Z</time>
      </trkpt>
      <trkpt lat="43.71777" lon="7.3179">
        <ele>425.52</ele>
        <time>2014-06-30T18:14:35Z</time>
      </trkpt>
      <trkpt lat="43.71777" lon="7.31787">
        <ele>425.52</ele>
        <time>2014-06-30T18:14:36Z</time>
      </trkpt>
      <trkpt lat="43.71777" lon="7.31784">
        <ele>425.52</ele>
        <time>2014-06-30T18:14:37Z</time>
      </trkpt>
      <trkpt lat="43.71777" lon="7.31781">
        <ele>425.52</ele>
        <time>2014-06-30T18:14:38Z</time>
      </trkpt>
      <trkpt lat="43.71776" lon="7.31778">
        <ele>425.04</ele>
        <time>2014-06-30T18:14:39Z</time>
      </trkpt>
      <trkpt lat="43.71776" lon="7.31775">
        <ele>424.56</ele>
        <time>2014-06-30T18:14:40Z</time>
      </trkpt>
      <trkpt lat="43.71776" lon="7.31771">
        <ele>424.08</ele>
        <time>2014-06-30T18:14:41Z</time>
      </trkpt>
      <trkpt lat="43.71776" lon="7.31767">
        <ele>424.08</ele>
        <time>2014-06-30T18:14:42Z</time>
      </trkpt>
      <trkpt lat="43.71776" lon="7.31765">
        <ele>423.6</ele>
        <time>2014-06-30T18:14:43Z</time>
      </trkpt>
      <trkpt lat="43.71775" lon="7.31761">
        <ele>423.12</ele>
        <time>2014-06-30T18:14:44Z</time>
      </trkpt>
      <trkpt lat="43.71775" lon="7.31759">
        <ele>422.16</ele>
        <time>2014-06-30T18:14:45Z</time>
      </trkpt>
      <trkpt lat="43.71775" lon="7.31757">
        <ele>421.68</ele>
        <time>2014-06-30T18:14:46Z</time>
      </trkpt>
      <trkpt lat="43.71775" lon="7.31753">
        <ele>422.16</ele>
        <time>2014-06-30T18:14:56Z</time>
      </trkpt>
      <trkpt lat="43.71774" lon="7.31749">
        <ele>421.68</ele>
        <time>2014-06-30T18:15:04Z</time>
      </trkpt>
      <trkpt lat="43.71775" lon="7.31755">
        <ele>422.16</ele>
        <time>2014-06-30T18:15:12Z</time>
      </trkpt>
      <trkpt lat="43.71775" lon="7.31756">
        <ele>422.16</ele>
        <time>2014-06-30T18:15:13Z</time>
      </trkpt>
      <trkpt lat="43.71776" lon="7.31758">
        <ele>422.64</ele>
        <time>2014-06-30T18:15:14Z</time>
      </trkpt>
      <trkpt lat="43.71776" lon="7.31763">
        <ele>423.12</ele>
        <time>2014-06-30T18:15:26Z</time>
      </trkpt>
      <trkpt lat="43.71776" lon="7.31763">
        <ele>424.08</ele>
        <time>2014-06-30T18:15:29Z</time>
      </trkpt>
      <trkpt lat="43.71775" lon="7.31755">
        <ele>423.6</ele>
        <time>2014-06-30T18:15:34Z</time>
      </trkpt>
      <trkpt lat="43.71774" lon="7.31752">
        <ele>423.6</ele>
        <time>2014-06-30T18:15:46Z</time>
      </trkpt>
      <trkpt lat="43.71772" lon="7.31745">
        <ele>422.64</ele>
        <time>2014-06-30T18:15:59Z</time>
      </trkpt>
      <trkpt lat="43.71774" lon="7.3175">
        <ele>424.56</ele>
        <time>2014-06-30T18:16:10Z</time>
      </trkpt>
      <trkpt lat="43.71774" lon="7.31754">
        <ele>425.52</ele>
        <time>2014-06-30T18:16:13Z</time>
      </trkpt>
      <trkpt lat="43.71775" lon="7.3176">
        <ele>426</ele>
        <time>2014-06-30T18:16:18Z</time>
      </trkpt>
      <trkpt lat="43.71775" lon="7.31761">
        <ele>426</ele>
        <time>2014-06-30T18:16:27Z</time>
      </trkpt>
      <trkpt lat="43.71775" lon="7.3176">
        <ele>426.96</ele>
        <time>2014-06-30T18:16:36Z</time>
      </trkpt>
      <trkpt lat="43.71775" lon="7.31757">
        <ele>426.96</ele>
        <time>2014-06-30T18:16:37Z</time>
      </trkpt>
      <trkpt lat="43.71775" lon="7.31752">
        <ele>426</ele>
        <time>2014-06-30T18:16:47Z</time>
      </trkpt>
      <trkpt lat="43.71774" lon="7.31747">
        <ele>424.08</ele>
        <time>2014-06-30T18:16:59Z</time>
      </trkpt>
      <trkpt lat="43.71771" lon="7.31746">
        <ele>421.68</ele>
        <time>2014-06-30T18:17:06Z</time>
      </trkpt>
      <trkpt lat="43.7177" lon="7.31748">
        <ele>421.19</ele>
        <time>2014-06-30T18:17:07Z</time>
      </trkpt>
      <trkpt lat="43.71765" lon="7.31763">
        <ele>418.79</ele>
        <time>2014-06-30T18:17:13Z</time>
      </trkpt>
      <trkpt lat="43.71763" lon="7.31766">
        <ele>418.31</ele>
        <time>2014-06-30T18:17:14Z</time>
      </trkpt>
      <trkpt lat="43.71763" lon="7.31768">
        <ele>417.83</ele>
        <time>2014-06-30T18:17:15Z</time>
      </trkpt>
      <trkpt lat="43.71759" lon="7.31786">
        <ele>414.95</ele>
        <time>2014-06-30T18:17:21Z</time>
      </trkpt>
      <trkpt lat="43.71758" lon="7.31787">
        <ele>413.98</ele>
        <time>2014-06-30T18:17:22Z</time>
      </trkpt>
      <trkpt lat="43.71756" lon="7.31789">
        <ele>413.5</ele>
        <time>2014-06-30T18:17:23Z</time>
      </trkpt>
      <trkpt lat="43.71755" lon="7.31791">
        <ele>412.54</ele>
        <time>2014-06-30T18:17:24Z</time>
      </trkpt>
      <trkpt lat="43.71755" lon="7.31793">
        <ele>412.06</ele>
        <time>2014-06-30T18:17:25Z</time>
      </trkpt>
      <trkpt lat="43.71754" lon="7.31804">
        <ele>407.74</ele>
        <time>2014-06-30T18:17:30Z</time>
      </trkpt>
      <trkpt lat="43.71754" lon="7.31809">
        <ele>406.29</ele>
        <time>2014-06-30T18:17:32Z</time>
      </trkpt>
      <trkpt lat="43.71746" lon="7.31842">
        <ele>402.93</ele>
        <time>2014-06-30T18:17:43Z</time>
      </trkpt>
      <trkpt lat="43.71745" lon="7.31856">
        <ele>408.22</ele>
        <time>2014-06-30T18:17:47Z</time>
      </trkpt>
      <trkpt lat="43.71744" lon="7.31884">
        <ele>409.18</ele>
        <time>2014-06-30T18:17:57Z</time>
      </trkpt>
      <trkpt lat="43.71744" lon="7.31888">
        <ele>408.7</ele>
        <time>2014-06-30T18:18:01Z</time>
      </trkpt>
      <trkpt lat="43.71743" lon="7.3189">
        <ele>408.7</ele>
        <time>2014-06-30T18:18:02Z</time>
      </trkpt>
      <trkpt lat="43.71743" lon="7.31893">
        <ele>409.18</ele>
        <time>2014-06-30T18:18:03Z</time>
      </trkpt>
      <trkpt lat="43.71742" lon="7.31896">
        <ele>409.18</ele>
        <time>2014-06-30T18:18:04Z</time>
      </trkpt>
      <trkpt lat="43.71741" lon="7.31898">
        <ele>409.18</ele>
        <time>2014-06-30T18:18:05Z</time>
      </trkpt>
      <trkpt lat="43.7174" lon="7.31901">
        <ele>409.18</ele>
        <time>2014-06-30T18:18:06Z</time>
      </trkpt>
      <trkpt lat="43.71739" lon="7.31902">
        <ele>409.18</ele>
        <time>2014-06-30T18:18:07Z</time>
      </trkpt>
      <trkpt lat="43.71737" lon="7.31904">
        <ele>409.66</ele>
        <time>2014-06-30T18:18:08Z</time>
      </trkpt>
      <trkpt lat="43.71735" lon="7.31907">
        <ele>409.18</ele>
        <time>2014-06-30T18:18:09Z</time>
      </trkpt>
      <trkpt lat="43.71733" lon="7.3191">
        <ele>409.18</ele>
        <time>2014-06-30T18:18:10Z</time>
      </trkpt>
      <trkpt lat="43.71731" lon="7.31914">
        <ele>408.7</ele>
        <time>2014-06-30T18:18:11Z</time>
      </trkpt>
      <trkpt lat="43.7173" lon="7.31918">
        <ele>407.74</ele>
        <time>2014-06-30T18:18:12Z</time>
      </trkpt>
      <trkpt lat="43.7173" lon="7.31922">
        <ele>406.77</ele>
        <time>2014-06-30T18:18:13Z</time>
      </trkpt>
      <trkpt lat="43.71729" lon="7.31925">
        <ele>405.33</ele>
        <time>2014-06-30T18:18:14Z</time>
      </trkpt>
      <trkpt lat="43.71729" lon="7.31927">
        <ele>404.37</ele>
        <time>2014-06-30T18:18:15Z</time>
      </trkpt>
      <trkpt lat="43.71728" lon="7.3193">
        <ele>402.93</ele>
        <time>2014-06-30T18:18:16Z</time>
      </trkpt>
      <trkpt lat="43.71728" lon="7.31933">
        <ele>401.49</ele>
        <time>2014-06-30T18:18:17Z</time>
      </trkpt>
      <trkpt lat="43.71727" lon="7.31935">
        <ele>400.53</ele>
        <time>2014-06-30T18:18:18Z</time>
      </trkpt>
      <trkpt lat="43.71727" lon="7.31938">
        <ele>399.08</ele>
        <time>2014-06-30T18:18:19Z</time>
      </trkpt>
      <trkpt lat="43.71727" lon="7.3194">
        <ele>398.6</ele>
        <time>2014-06-30T18:18:20Z</time>
      </trkpt>
      <trkpt lat="43.71726" lon="7.31944">
        <ele>397.64</ele>
        <time>2014-06-30T18:18:21Z</time>
      </trkpt>
      <trkpt lat="43.71726" lon="7.31947">
        <ele>397.64</ele>
        <time>2014-06-30T18:18:22Z</time>
      </trkpt>
      <trkpt lat="43.71725" lon="7.31951">
        <ele>397.16</ele>
        <time>2014-06-30T18:18:23Z</time>
      </trkpt>
      <trkpt lat="43.71723" lon="7.31955">
        <ele>397.16</ele>
        <time>2014-06-30T18:18:24Z</time>
      </trkpt>
      <trkpt lat="43.71723" lon="7.31959">
        <ele>397.16</ele>
        <time>2014-06-30T18:18:25Z</time>
      </trkpt>
      <trkpt lat="43.71723" lon="7.31962">
        <ele>397.16</ele>
        <time>2014-06-30T18:18:26Z</time>
      </trkpt>
      <trkpt lat="43.71722" lon="7.31964">
        <ele>397.16</ele>
        <time>2014-06-30T18:18:27Z</time>
      </trkpt>
      <trkpt lat="43.71722" lon="7.31967">
        <ele>397.16</ele>
        <time>2014-06-30T18:18:28Z</time>
      </trkpt>
      <trkpt lat="43.71722" lon="7.3197">
        <ele>397.16</ele>
        <time>2014-06-30T18:18:29Z</time>
      </trkpt>
      <trkpt lat="43.71721" lon="7.31973">
        <ele>396.68</ele>
        <time>2014-06-30T18:18:30Z</time>
      </trkpt>
      <trkpt lat="43.7172" lon="7.31976">
        <ele>396.2</ele>
        <time>2014-06-30T18:18:31Z</time>
      </trkpt>
      <trkpt lat="43.71718" lon="7.31981">
        <ele>395.24</ele>
        <time>2014-06-30T18:18:33Z</time>
      </trkpt>
      <trkpt lat="43.71718" lon="7.31984">
        <ele>395.24</ele>
        <time>2014-06-30T18:18:34Z</time>
      </trkpt>
      <trkpt lat="43.71718" lon="7.31987">
        <ele>395.24</ele>
        <time>2014-06-30T18:18:35Z</time>
      </trkpt>
      <trkpt lat="43.71718" lon="7.3199">
        <ele>395.24</ele>
        <time>2014-06-30T18:18:36Z</time>
      </trkpt>
      <trkpt lat="43.71718" lon="7.31993">
        <ele>395.24</ele>
        <time>2014-06-30T18:18:37Z</time>
      </trkpt>
      <trkpt lat="43.71718" lon="7.31994">
        <ele>395.24</ele>
        <time>2014-06-30T18:18:38Z</time>
      </trkpt>
      <trkpt lat="43.71718" lon="7.32">
        <ele>396.2</ele>
        <time>2014-06-30T18:18:47Z</time>
      </trkpt>
      <trkpt lat="43.71718" lon="7.32001">
        <ele>396.2</ele>
        <time>2014-06-30T18:18:48Z</time>
      </trkpt>
      <trkpt lat="43.71719" lon="7.32012">
        <ele>399.57</ele>
        <time>2014-06-30T18:18:57Z</time>
      </trkpt>
      <trkpt lat="43.71718" lon="7.32015">
        <ele>399.57</ele>
        <time>2014-06-30T18:18:59Z</time>
      </trkpt>
      <trkpt lat="43.71718" lon="7.32016">
        <ele>399.57</ele>
        <time>2014-06-30T18:19:05Z</time>
      </trkpt>
      <trkpt lat="43.71717" lon="7.32017">
        <ele>399.57</ele>
        <time>2014-06-30T18:19:06Z</time>
      </trkpt>
      <trkpt lat="43.71715" lon="7.3202">
        <ele>399.57</ele>
        <time>2014-06-30T18:19:07Z</time>
      </trkpt>
      <trkpt lat="43.71714" lon="7.32022">
        <ele>399.08</ele>
        <time>2014-06-30T18:19:08Z</time>
      </trkpt>
      <trkpt lat="43.71713" lon="7.32026">
        <ele>399.08</ele>
        <time>2014-06-30T18:19:09Z</time>
      </trkpt>
      <trkpt lat="43.71713" lon="7.3203">
        <ele>399.08</ele>
        <time>2014-06-30T18:19:10Z</time>
      </trkpt>
      <trkpt lat="43.71712" lon="7.32033">
        <ele>398.6</ele>
        <time>2014-06-30T18:19:11Z</time>
      </trkpt>
      <trkpt lat="43.71709" lon="7.3204">
        <ele>396.2</ele>
        <time>2014-06-30T18:19:19Z</time>
      </trkpt>
      <trkpt lat="43.71705" lon="7.32037">
        <ele>397.16</ele>
        <time>2014-06-30T18:19:30Z</time>
      </trkpt>
      <trkpt lat="43.717" lon="7.32039">
        <ele>397.64</ele>
        <time>2014-06-30T18:19:41Z</time>
      </trkpt>
      <trkpt lat="43.71696" lon="7.3204">
        <ele>396.68</ele>
        <time>2014-06-30T18:19:54Z</time>
      </trkpt>
      <trkpt lat="43.71695" lon="7.32034">
        <ele>395.72</ele>
        <time>2014-06-30T18:20:03Z</time>
      </trkpt>
      <trkpt lat="43.71694" lon="7.32028">
        <ele>395.24</ele>
        <time>2014-06-30T18:20:15Z</time>
      </trkpt>
      <trkpt lat="43.7169" lon="7.32025">
        <ele>394.28</ele>
        <time>2014-06-30T18:20:27Z</time>
      </trkpt>
      <trkpt lat="43.71686" lon="7.32026">
        <ele>392.36</ele>
        <time>2014-06-30T18:20:37Z</time>
      </trkpt>
      <trkpt lat="43.71684" lon="7.32029">
        <ele>390.43</ele>
        <time>2014-06-30T18:20:48Z</time>
      </trkpt>
      <trkpt lat="43.71682" lon="7.32029">
        <ele>389.95</ele>
        <time>2014-06-30T18:20:50Z</time>
      </trkpt>
      <trkpt lat="43.71681" lon="7.32027">
        <ele>389.47</ele>
        <time>2014-06-30T18:20:55Z</time>
      </trkpt>
      <trkpt lat="43.71686" lon="7.31972">
        <ele>385.15</ele>
        <time>2014-06-30T18:21:04Z</time>
      </trkpt>
      <trkpt lat="43.71685" lon="7.31952">
        <ele>384.18</ele>
        <time>2014-06-30T18:21:06Z</time>
      </trkpt>
      <trkpt lat="43.71684" lon="7.31942">
        <ele>383.22</ele>
        <time>2014-06-30T18:21:07Z</time>
      </trkpt>
      <trkpt lat="43.71683" lon="7.31902">
        <ele>380.34</ele>
        <time>2014-06-30T18:21:11Z</time>
      </trkpt>
      <trkpt lat="43.71689" lon="7.31798">
        <ele>373.13</ele>
        <time>2014-06-30T18:21:21Z</time>
      </trkpt>
      <trkpt lat="43.71699" lon="7.31678">
        <ele>365.92</ele>
        <time>2014-06-30T18:21:32Z</time>
      </trkpt>
      <trkpt lat="43.717" lon="7.31656">
        <ele>364.48</ele>
        <time>2014-06-30T18:21:34Z</time>
      </trkpt>
      <trkpt lat="43.71688" lon="7.31499">
        <ele>354.86</ele>
        <time>2014-06-30T18:21:47Z</time>
      </trkpt>
      <trkpt lat="43.71673" lon="7.31312">
        <ele>342.85</ele>
        <time>2014-06-30T18:22:00Z</time>
      </trkpt>
      <trkpt lat="43.71693" lon="7.31203">
        <ele>337.08</ele>
        <time>2014-06-30T18:22:09Z</time>
      </trkpt>
      <trkpt lat="43.717" lon="7.31175">
        <ele>336.12</ele>
        <time>2014-06-30T18:22:12Z</time>
      </trkpt>
      <trkpt lat="43.71702" lon="7.31167">
        <ele>335.64</ele>
        <time>2014-06-30T18:22:13Z</time>
      </trkpt>
      <trkpt lat="43.71705" lon="7.31151">
        <ele>335.16</ele>
        <time>2014-06-30T18:22:15Z</time>
      </trkpt>
      <trkpt lat="43.71705" lon="7.31143">
        <ele>335.16</ele>
        <time>2014-06-30T18:22:16Z</time>
      </trkpt>
      <trkpt lat="43.71704" lon="7.31133">
        <ele>334.68</ele>
        <time>2014-06-30T18:22:17Z</time>
      </trkpt>
      <trkpt lat="43.71702" lon="7.31106">
        <ele>333.23</ele>
        <time>2014-06-30T18:22:20Z</time>
      </trkpt>
      <trkpt lat="43.71703" lon="7.31097">
        <ele>332.75</ele>
        <time>2014-06-30T18:22:21Z</time>
      </trkpt>
      <trkpt lat="43.71705" lon="7.31087">
        <ele>332.27</ele>
        <time>2014-06-30T18:22:22Z</time>
      </trkpt>
      <trkpt lat="43.71709" lon="7.31078">
        <ele>331.79</ele>
        <time>2014-06-30T18:22:23Z</time>
      </trkpt>
      <trkpt lat="43.71714" lon="7.31071">
        <ele>331.31</ele>
        <time>2014-06-30T18:22:24Z</time>
      </trkpt>
      <trkpt lat="43.7172" lon="7.31065">
        <ele>331.31</ele>
        <time>2014-06-30T18:22:25Z</time>
      </trkpt>
      <trkpt lat="43.71726" lon="7.31061">
        <ele>331.31</ele>
        <time>2014-06-30T18:22:26Z</time>
      </trkpt>
      <trkpt lat="43.71733" lon="7.31057">
        <ele>331.31</ele>
        <time>2014-06-30T18:22:27Z</time>
      </trkpt>
      <trkpt lat="43.71837" lon="7.31021">
        <ele>324.1</ele>
        <time>2014-06-30T18:22:41Z</time>
      </trkpt>
      <trkpt lat="43.71867" lon="7.31008">
        <ele>322.66</ele>
        <time>2014-06-30T18:22:45Z</time>
      </trkpt>
      <trkpt lat="43.71874" lon="7.31002">
        <ele>321.7</ele>
        <time>2014-06-30T18:22:46Z</time>
      </trkpt>
      <trkpt lat="43.7188" lon="7.30995">
        <ele>320.74</ele>
        <time>2014-06-30T18:22:47Z</time>
      </trkpt>
      <trkpt lat="43.71885" lon="7.30988">
        <ele>320.26</ele>
        <time>2014-06-30T18:22:48Z</time>
      </trkpt>
      <trkpt lat="43.7189" lon="7.30979">
        <ele>319.78</ele>
        <time>2014-06-30T18:22:49Z</time>
      </trkpt>
      <trkpt lat="43.71894" lon="7.3097">
        <ele>319.3</ele>
        <time>2014-06-30T18:22:50Z</time>
      </trkpt>
      <trkpt lat="43.71934" lon="7.30874">
        <ele>316.41</ele>
        <time>2014-06-30T18:23:00Z</time>
      </trkpt>
      <trkpt lat="43.71935" lon="7.30864">
        <ele>315.93</ele>
        <time>2014-06-30T18:23:01Z</time>
      </trkpt>
      <trkpt lat="43.71936" lon="7.30853">
        <ele>315.45</ele>
        <time>2014-06-30T18:23:02Z</time>
      </trkpt>
      <trkpt lat="43.71935" lon="7.30843">
        <ele>315.45</ele>
        <time>2014-06-30T18:23:03Z</time>
      </trkpt>
      <trkpt lat="43.71933" lon="7.30832">
        <ele>314.97</ele>
        <time>2014-06-30T18:23:04Z</time>
      </trkpt>
      <trkpt lat="43.71929" lon="7.30822">
        <ele>314.49</ele>
        <time>2014-06-30T18:23:05Z</time>
      </trkpt>
      <trkpt lat="43.71925" lon="7.30812">
        <ele>314.01</ele>
        <time>2014-06-30T18:23:06Z</time>
      </trkpt>
      <trkpt lat="43.71921" lon="7.30802">
        <ele>314.01</ele>
        <time>2014-06-30T18:23:07Z</time>
      </trkpt>
      <trkpt lat="43.71899" lon="7.30744">
        <ele>310.64</ele>
        <time>2014-06-30T18:23:13Z</time>
      </trkpt>
      <trkpt lat="43.71899" lon="7.30734">
        <ele>310.16</ele>
        <time>2014-06-30T18:23:14Z</time>
      </trkpt>
      <trkpt lat="43.71899" lon="7.30724">
        <ele>309.68</ele>
        <time>2014-06-30T18:23:15Z</time>
      </trkpt>
      <trkpt lat="43.719" lon="7.30715">
        <ele>309.2</ele>
        <time>2014-06-30T18:23:16Z</time>
      </trkpt>
      <trkpt lat="43.71903" lon="7.30705">
        <ele>309.2</ele>
        <time>2014-06-30T18:23:17Z</time>
      </trkpt>
      <trkpt lat="43.71905" lon="7.30696">
        <ele>309.2</ele>
        <time>2014-06-30T18:23:18Z</time>
      </trkpt>
      <trkpt lat="43.71909" lon="7.30687">
        <ele>309.2</ele>
        <time>2014-06-30T18:23:19Z</time>
      </trkpt>
      <trkpt lat="43.71913" lon="7.30678">
        <ele>309.2</ele>
        <time>2014-06-30T18:23:20Z</time>
      </trkpt>
      <trkpt lat="43.71949" lon="7.30622">
        <ele>307.76</ele>
        <time>2014-06-30T18:23:28Z</time>
      </trkpt>
      <trkpt lat="43.71957" lon="7.30609">
        <ele>307.28</ele>
        <time>2014-06-30T18:23:31Z</time>
      </trkpt>
      <trkpt lat="43.71958" lon="7.30606">
        <ele>306.8</ele>
        <time>2014-06-30T18:23:32Z</time>
      </trkpt>
      <trkpt lat="43.71959" lon="7.30602">
        <ele>306.8</ele>
        <time>2014-06-30T18:23:33Z</time>
      </trkpt>
      <trkpt lat="43.71958" lon="7.30598">
        <ele>306.32</ele>
        <time>2014-06-30T18:23:34Z</time>
      </trkpt>
      <trkpt lat="43.71957" lon="7.30594">
        <ele>306.32</ele>
        <time>2014-06-30T18:23:35Z</time>
      </trkpt>
      <trkpt lat="43.71956" lon="7.30591">
        <ele>306.32</ele>
        <time>2014-06-30T18:23:36Z</time>
      </trkpt>
      <trkpt lat="43.71954" lon="7.30587">
        <ele>306.8</ele>
        <time>2014-06-30T18:23:37Z</time>
      </trkpt>
      <trkpt lat="43.71953" lon="7.30585">
        <ele>307.28</ele>
        <time>2014-06-30T18:23:38Z</time>
      </trkpt>
      <trkpt lat="43.7194" lon="7.30572">
        <ele>307.76</ele>
        <time>2014-06-30T18:23:45Z</time>
      </trkpt>
      <trkpt lat="43.71938" lon="7.3057">
        <ele>307.76</ele>
        <time>2014-06-30T18:23:46Z</time>
      </trkpt>
      <trkpt lat="43.71936" lon="7.30568">
        <ele>307.28</ele>
        <time>2014-06-30T18:23:47Z</time>
      </trkpt>
      <trkpt lat="43.71934" lon="7.30566">
        <ele>306.8</ele>
        <time>2014-06-30T18:23:48Z</time>
      </trkpt>
      <trkpt lat="43.71932" lon="7.30563">
        <ele>306.32</ele>
        <time>2014-06-30T18:23:49Z</time>
      </trkpt>
      <trkpt lat="43.71906" lon="7.3053">
        <ele>307.76</ele>
        <time>2014-06-30T18:24:03Z</time>
      </trkpt>
      <trkpt lat="43.71893" lon="7.30512">
        <ele>308.72</ele>
        <time>2014-06-30T18:24:12Z</time>
      </trkpt>
      <trkpt lat="43.71892" lon="7.3051">
        <ele>308.72</ele>
        <time>2014-06-30T18:24:13Z</time>
      </trkpt>
      <trkpt lat="43.7189" lon="7.30509">
        <ele>309.2</ele>
        <time>2014-06-30T18:24:14Z</time>
      </trkpt>
      <trkpt lat="43.71885" lon="7.30506">
        <ele>309.68</ele>
        <time>2014-06-30T18:24:17Z</time>
      </trkpt>
      <trkpt lat="43.71874" lon="7.30504">
        <ele>311.6</ele>
        <time>2014-06-30T18:24:28Z</time>
      </trkpt>
      <trkpt lat="43.71871" lon="7.30503">
        <ele>313.53</ele>
        <time>2014-06-30T18:24:40Z</time>
      </trkpt>
      <trkpt lat="43.7187" lon="7.30503">
        <ele>314.01</ele>
        <time>2014-06-30T18:24:41Z</time>
      </trkpt>
      <trkpt lat="43.71859" lon="7.30502">
        <ele>315.45</ele>
        <time>2014-06-30T18:24:48Z</time>
      </trkpt>
      <trkpt lat="43.71857" lon="7.30502">
        <ele>315.93</ele>
        <time>2014-06-30T18:24:49Z</time>
      </trkpt>
      <trkpt lat="43.71856" lon="7.30503">
        <ele>315.93</ele>
        <time>2014-06-30T18:24:50Z</time>
      </trkpt>
      <trkpt lat="43.71854" lon="7.30504">
        <ele>316.41</ele>
        <time>2014-06-30T18:24:51Z</time>
      </trkpt>
      <trkpt lat="43.71853" lon="7.30504">
        <ele>316.89</ele>
        <time>2014-06-30T18:24:52Z</time>
      </trkpt>
      <trkpt lat="43.71851" lon="7.30505">
        <ele>317.37</ele>
        <time>2014-06-30T18:24:53Z</time>
      </trkpt>
      <trkpt lat="43.71837" lon="7.30507">
        <ele>319.3</ele>
        <time>2014-06-30T18:25:02Z</time>
      </trkpt>
      <trkpt lat="43.71835" lon="7.30507">
        <ele>319.3</ele>
        <time>2014-06-30T18:25:03Z</time>
      </trkpt>
      <trkpt lat="43.71833" lon="7.30507">
        <ele>319.78</ele>
        <time>2014-06-30T18:25:04Z</time>
      </trkpt>
      <trkpt lat="43.71832" lon="7.30507">
        <ele>320.26</ele>
        <time>2014-06-30T18:25:05Z</time>
      </trkpt>
      <trkpt lat="43.7183" lon="7.30507">
        <ele>320.26</ele>
        <time>2014-06-30T18:25:06Z</time>
      </trkpt>
      <trkpt lat="43.71828" lon="7.30508">
        <ele>320.26</ele>
        <time>2014-06-30T18:25:07Z</time>
      </trkpt>
      <trkpt lat="43.71826" lon="7.30508">
        <ele>320.74</ele>
        <time>2014-06-30T18:25:08Z</time>
      </trkpt>
      <trkpt lat="43.71824" lon="7.30509">
        <ele>320.74</ele>
        <time>2014-06-30T18:25:09Z</time>
      </trkpt>
      <trkpt lat="43.71799" lon="7.30498">
        <ele>322.66</ele>
        <time>2014-06-30T18:25:24Z</time>
      </trkpt>
      <trkpt lat="43.7179" lon="7.30485">
        <ele>326.99</ele>
        <time>2014-06-30T18:25:36Z</time>
      </trkpt>
      <trkpt lat="43.7179" lon="7.30488">
        <ele>328.91</ele>
        <time>2014-06-30T18:26:02Z</time>
      </trkpt>
      <trkpt lat="43.71791" lon="7.30485">
        <ele>328.91</ele>
        <time>2014-06-30T18:26:13Z</time>
      </trkpt>
      <trkpt lat="43.71792" lon="7.30484">
        <ele>328.43</ele>
        <time>2014-06-30T18:26:14Z</time>
      </trkpt>
      <trkpt lat="43.71799" lon="7.30469">
        <ele>322.18</ele>
        <time>2014-06-30T18:26:23Z</time>
      </trkpt>
      <trkpt lat="43.71801" lon="7.3046">
        <ele>317.37</ele>
        <time>2014-06-30T18:26:31Z</time>
      </trkpt>
      <trkpt lat="43.71801" lon="7.30435">
        <ele>312.57</ele>
        <time>2014-06-30T18:26:39Z</time>
      </trkpt>
      <trkpt lat="43.71796" lon="7.30425">
        <ele>311.12</ele>
        <time>2014-06-30T18:26:44Z</time>
      </trkpt>
      <trkpt lat="43.71797" lon="7.30422">
        <ele>311.12</ele>
        <time>2014-06-30T18:26:46Z</time>
      </trkpt>
      <trkpt lat="43.71809" lon="7.30412">
        <ele>308.72</ele>
        <time>2014-06-30T18:26:56Z</time>
      </trkpt>
      <trkpt lat="43.71811" lon="7.30408">
        <ele>308.24</ele>
        <time>2014-06-30T18:27:01Z</time>
      </trkpt>
      <trkpt lat="43.71808" lon="7.30404">
        <ele>307.76</ele>
        <time>2014-06-30T18:27:05Z</time>
      </trkpt>
      <trkpt lat="43.718" lon="7.30401">
        <ele>308.24</ele>
        <time>2014-06-30T18:27:10Z</time>
      </trkpt>
      <trkpt lat="43.71799" lon="7.30399">
        <ele>308.24</ele>
        <time>2014-06-30T18:27:13Z</time>
      </trkpt>
      <trkpt lat="43.71803" lon="7.30394">
        <ele>306.8</ele>
        <time>2014-06-30T18:27:20Z</time>
      </trkpt>
      <trkpt lat="43.71786" lon="7.30386">
        <ele>302.95</ele>
        <time>2014-06-30T18:27:29Z</time>
      </trkpt>
      <trkpt lat="43.71774" lon="7.30384">
        <ele>299.59</ele>
        <time>2014-06-30T18:27:34Z</time>
      </trkpt>
      <trkpt lat="43.71758" lon="7.30378">
        <ele>297.67</ele>
        <time>2014-06-30T18:27:40Z</time>
      </trkpt>
      <trkpt lat="43.71752" lon="7.30372">
        <ele>296.22</ele>
        <time>2014-06-30T18:27:48Z</time>
      </trkpt>
      <trkpt lat="43.71764" lon="7.3037">
        <ele>296.22</ele>
        <time>2014-06-30T18:27:53Z</time>
      </trkpt>
      <trkpt lat="43.71768" lon="7.30367">
        <ele>295.74</ele>
        <time>2014-06-30T18:28:02Z</time>
      </trkpt>
      <trkpt lat="43.71768" lon="7.30365">
        <ele>295.74</ele>
        <time>2014-06-30T18:28:16Z</time>
      </trkpt>
      <trkpt lat="43.71769" lon="7.30366">
        <ele>293.82</ele>
        <time>2014-06-30T18:28:49Z</time>
      </trkpt>
      <trkpt lat="43.7177" lon="7.30365">
        <ele>293.82</ele>
        <time>2014-06-30T18:29:07Z</time>
      </trkpt>
      <trkpt lat="43.71771" lon="7.30365">
        <ele>293.82</ele>
        <time>2014-06-30T18:29:11Z</time>
      </trkpt>
      <trkpt lat="43.71772" lon="7.30362">
        <ele>292.38</ele>
        <time>2014-06-30T18:29:26Z</time>
      </trkpt>
      <trkpt lat="43.71774" lon="7.30361">
        <ele>291.42</ele>
        <time>2014-06-30T18:29:36Z</time>
      </trkpt>
      <trkpt lat="43.71777" lon="7.3036">
        <ele>290.94</ele>
        <time>2014-06-30T18:29:38Z</time>
      </trkpt>
      <trkpt lat="43.71773" lon="7.30353">
        <ele>291.42</ele>
        <time>2014-06-30T18:29:46Z</time>
      </trkpt>
      <trkpt lat="43.71755" lon="7.30346">
        <ele>289.97</ele>
        <time>2014-06-30T18:29:56Z</time>
      </trkpt>
      <trkpt lat="43.71731" lon="7.30327">
        <ele>284.69</ele>
        <time>2014-06-30T18:30:06Z</time>
      </trkpt>
      <trkpt lat="43.71707" lon="7.30299">
        <ele>278.92</ele>
        <time>2014-06-30T18:30:16Z</time>
      </trkpt>
      <trkpt lat="43.71709" lon="7.30293">
        <ele>277.48</ele>
        <time>2014-06-30T18:30:23Z</time>
      </trkpt>
      <trkpt lat="43.71708" lon="7.30293">
        <ele>276.52</ele>
        <time>2014-06-30T18:30:41Z</time>
      </trkpt>
      <trkpt lat="43.71708" lon="7.30293">
        <ele>276.52</ele>
        <time>2014-06-30T18:30:47Z</time>
      </trkpt>
      <trkpt lat="43.71716" lon="7.30301">
        <ele>274.11</ele>
        <time>2014-06-30T18:30:58Z</time>
      </trkpt>
      <trkpt lat="43.71717" lon="7.30304">
        <ele>273.15</ele>
        <time>2014-06-30T18:31:17Z</time>
      </trkpt>
      <trkpt lat="43.71719" lon="7.30305">
        <ele>274.11</ele>
        <time>2014-06-30T18:31:36Z</time>
      </trkpt>
      <trkpt lat="43.71732" lon="7.30309">
        <ele>274.59</ele>
        <time>2014-06-30T18:31:45Z</time>
      </trkpt>
      <trkpt lat="43.71761" lon="7.30315">
        <ele>271.71</ele>
        <time>2014-06-30T18:31:52Z</time>
      </trkpt>
      <trkpt lat="43.71763" lon="7.30314">
        <ele>271.23</ele>
        <time>2014-06-30T18:31:53Z</time>
      </trkpt>
      <trkpt lat="43.71755" lon="7.30305">
        <ele>269.31</ele>
        <time>2014-06-30T18:31:57Z</time>
      </trkpt>
      <trkpt lat="43.71751" lon="7.30303">
        <ele>269.31</ele>
        <time>2014-06-30T18:31:58Z</time>
      </trkpt>
      <trkpt lat="43.71747" lon="7.30301">
        <ele>268.83</ele>
        <time>2014-06-30T18:31:59Z</time>
      </trkpt>
      <trkpt lat="43.71743" lon="7.30297">
        <ele>268.83</ele>
        <time>2014-06-30T18:32:00Z</time>
      </trkpt>
      <trkpt lat="43.71717" lon="7.30267">
        <ele>265.94</ele>
        <time>2014-06-30T18:32:06Z</time>
      </trkpt>
      <trkpt lat="43.71714" lon="7.30261">
        <ele>264.98</ele>
        <time>2014-06-30T18:32:07Z</time>
      </trkpt>
      <trkpt lat="43.71711" lon="7.30253">
        <ele>264.02</ele>
        <time>2014-06-30T18:32:08Z</time>
      </trkpt>
      <trkpt lat="43.71709" lon="7.30245">
        <ele>263.06</ele>
        <time>2014-06-30T18:32:09Z</time>
      </trkpt>
      <trkpt lat="43.71707" lon="7.30236">
        <ele>262.58</ele>
        <time>2014-06-30T18:32:10Z</time>
      </trkpt>
      <trkpt lat="43.71704" lon="7.30228">
        <ele>261.62</ele>
        <time>2014-06-30T18:32:11Z</time>
      </trkpt>
      <trkpt lat="43.71701" lon="7.30214">
        <ele>259.21</ele>
        <time>2014-06-30T18:32:14Z</time>
      </trkpt>
      <trkpt lat="43.71702" lon="7.30212">
        <ele>258.25</ele>
        <time>2014-06-30T18:32:15Z</time>
      </trkpt>
      <trkpt lat="43.71703" lon="7.30212">
        <ele>257.29</ele>
        <time>2014-06-30T18:32:16Z</time>
      </trkpt>
      <trkpt lat="43.71706" lon="7.30214">
        <ele>256.33</ele>
        <time>2014-06-30T18:32:17Z</time>
      </trkpt>
      <trkpt lat="43.71708" lon="7.30217">
        <ele>255.85</ele>
        <time>2014-06-30T18:32:18Z</time>
      </trkpt>
      <trkpt lat="43.71711" lon="7.30221">
        <ele>254.89</ele>
        <time>2014-06-30T18:32:19Z</time>
      </trkpt>
      <trkpt lat="43.71715" lon="7.30225">
        <ele>254.41</ele>
        <time>2014-06-30T18:32:20Z</time>
      </trkpt>
      <trkpt lat="43.71718" lon="7.30229">
        <ele>253.93</ele>
        <time>2014-06-30T18:32:21Z</time>
      </trkpt>
      <trkpt lat="43.71724" lon="7.30235">
        <ele>252.48</ele>
        <time>2014-06-30T18:32:25Z</time>
      </trkpt>
      <trkpt lat="43.71725" lon="7.30233">
        <ele>252</ele>
        <time>2014-06-30T18:32:26Z</time>
      </trkpt>
      <trkpt lat="43.71728" lon="7.30222">
        <ele>250.56</ele>
        <time>2014-06-30T18:32:28Z</time>
      </trkpt>
      <trkpt lat="43.7173" lon="7.30215">
        <ele>249.6</ele>
        <time>2014-06-30T18:32:29Z</time>
      </trkpt>
      <trkpt lat="43.71733" lon="7.30209">
        <ele>248.64</ele>
        <time>2014-06-30T18:32:30Z</time>
      </trkpt>
      <trkpt lat="43.71735" lon="7.30203">
        <ele>247.2</ele>
        <time>2014-06-30T18:32:31Z</time>
      </trkpt>
      <trkpt lat="43.71739" lon="7.30196">
        <ele>246.23</ele>
        <time>2014-06-30T18:32:32Z</time>
      </trkpt>
      <trkpt lat="43.71742" lon="7.3019">
        <ele>245.27</ele>
        <time>2014-06-30T18:32:33Z</time>
      </trkpt>
      <trkpt lat="43.71745" lon="7.30185">
        <ele>244.79</ele>
        <time>2014-06-30T18:32:34Z</time>
      </trkpt>
      <trkpt lat="43.71747" lon="7.30178">
        <ele>243.83</ele>
        <time>2014-06-30T18:32:35Z</time>
      </trkpt>
      <trkpt lat="43.7175" lon="7.30173">
        <ele>242.39</ele>
        <time>2014-06-30T18:32:36Z</time>
      </trkpt>
      <trkpt lat="43.71755" lon="7.3016">
        <ele>239.99</ele>
        <time>2014-06-30T18:32:39Z</time>
      </trkpt>
      <trkpt lat="43.71753" lon="7.30153">
        <ele>238.06</ele>
        <time>2014-06-30T18:32:45Z</time>
      </trkpt>
      <trkpt lat="43.71751" lon="7.3015">
        <ele>238.06</ele>
        <time>2014-06-30T18:32:46Z</time>
      </trkpt>
      <trkpt lat="43.71749" lon="7.30147">
        <ele>237.58</ele>
        <time>2014-06-30T18:32:47Z</time>
      </trkpt>
      <trkpt lat="43.71732" lon="7.30129">
        <ele>236.62</ele>
        <time>2014-06-30T18:32:52Z</time>
      </trkpt>
      <trkpt lat="43.71711" lon="7.30116">
        <ele>235.66</ele>
        <time>2014-06-30T18:32:57Z</time>
      </trkpt>
      <trkpt lat="43.71706" lon="7.30113">
        <ele>235.66</ele>
        <time>2014-06-30T18:32:58Z</time>
      </trkpt>
      <trkpt lat="43.71702" lon="7.30109">
        <ele>235.18</ele>
        <time>2014-06-30T18:32:59Z</time>
      </trkpt>
      <trkpt lat="43.71697" lon="7.30105">
        <ele>234.7</ele>
        <time>2014-06-30T18:33:00Z</time>
      </trkpt>
      <trkpt lat="43.71692" lon="7.30102">
        <ele>234.22</ele>
        <time>2014-06-30T18:33:01Z</time>
      </trkpt>
      <trkpt lat="43.71687" lon="7.30099">
        <ele>233.74</ele>
        <time>2014-06-30T18:33:02Z</time>
      </trkpt>
      <trkpt lat="43.71681" lon="7.30097">
        <ele>232.78</ele>
        <time>2014-06-30T18:33:03Z</time>
      </trkpt>
      <trkpt lat="43.7164" lon="7.30089">
        <ele>226.53</ele>
        <time>2014-06-30T18:33:09Z</time>
      </trkpt>
      <trkpt lat="43.71634" lon="7.30087">
        <ele>226.05</ele>
        <time>2014-06-30T18:33:10Z</time>
      </trkpt>
      <trkpt lat="43.71628" lon="7.30085">
        <ele>225.09</ele>
        <time>2014-06-30T18:33:11Z</time>
      </trkpt>
      <trkpt lat="43.71622" lon="7.30083">
        <ele>224.61</ele>
        <time>2014-06-30T18:33:12Z</time>
      </trkpt>
      <trkpt lat="43.71615" lon="7.30079">
        <ele>224.12</ele>
        <time>2014-06-30T18:33:13Z</time>
      </trkpt>
      <trkpt lat="43.71609" lon="7.30077">
        <ele>223.16</ele>
        <time>2014-06-30T18:33:14Z</time>
      </trkpt>
      <trkpt lat="43.71604" lon="7.30075">
        <ele>222.68</ele>
        <time>2014-06-30T18:33:15Z</time>
      </trkpt>
      <trkpt lat="43.716" lon="7.30075">
        <ele>221.72</ele>
        <time>2014-06-30T18:33:16Z</time>
      </trkpt>
      <trkpt lat="43.71598" lon="7.30073">
        <ele>221.24</ele>
        <time>2014-06-30T18:33:17Z</time>
      </trkpt>
      <trkpt lat="43.71599" lon="7.30072">
        <ele>220.76</ele>
        <time>2014-06-30T18:33:18Z</time>
      </trkpt>
      <trkpt lat="43.71601" lon="7.3007">
        <ele>220.28</ele>
        <time>2014-06-30T18:33:19Z</time>
      </trkpt>
      <trkpt lat="43.71604" lon="7.30068">
        <ele>219.8</ele>
        <time>2014-06-30T18:33:20Z</time>
      </trkpt>
      <trkpt lat="43.71622" lon="7.30061">
        <ele>216.91</ele>
        <time>2014-06-30T18:33:27Z</time>
      </trkpt>
      <trkpt lat="43.71622" lon="7.30058">
        <ele>216.91</ele>
        <time>2014-06-30T18:33:28Z</time>
      </trkpt>
      <trkpt lat="43.71621" lon="7.30056">
        <ele>216.91</ele>
        <time>2014-06-30T18:33:29Z</time>
      </trkpt>
      <trkpt lat="43.71619" lon="7.30054">
        <ele>216.91</ele>
        <time>2014-06-30T18:33:30Z</time>
      </trkpt>
      <trkpt lat="43.71616" lon="7.30054">
        <ele>216.91</ele>
        <time>2014-06-30T18:33:31Z</time>
      </trkpt>
      <trkpt lat="43.71613" lon="7.30055">
        <ele>216.91</ele>
        <time>2014-06-30T18:33:32Z</time>
      </trkpt>
      <trkpt lat="43.71598" lon="7.3006">
        <ele>215.95</ele>
        <time>2014-06-30T18:33:36Z</time>
      </trkpt>
      <trkpt lat="43.71594" lon="7.3006">
        <ele>215.47</ele>
        <time>2014-06-30T18:33:37Z</time>
      </trkpt>
      <trkpt lat="43.71589" lon="7.3006">
        <ele>215.47</ele>
        <time>2014-06-30T18:33:38Z</time>
      </trkpt>
      <trkpt lat="43.71585" lon="7.30058">
        <ele>214.99</ele>
        <time>2014-06-30T18:33:39Z</time>
      </trkpt>
      <trkpt lat="43.71579" lon="7.30057">
        <ele>214.51</ele>
        <time>2014-06-30T18:33:40Z</time>
      </trkpt>
      <trkpt lat="43.71573" lon="7.30054">
        <ele>214.03</ele>
        <time>2014-06-30T18:33:41Z</time>
      </trkpt>
      <trkpt lat="43.71568" lon="7.30049">
        <ele>213.55</ele>
        <time>2014-06-30T18:33:42Z</time>
      </trkpt>
      <trkpt lat="43.71562" lon="7.30043">
        <ele>212.59</ele>
        <time>2014-06-30T18:33:43Z</time>
      </trkpt>
      <trkpt lat="43.71518" lon="7.30001">
        <ele>205.86</ele>
        <time>2014-06-30T18:33:50Z</time>
      </trkpt>
      <trkpt lat="43.71515" lon="7.29995">
        <ele>205.38</ele>
        <time>2014-06-30T18:33:51Z</time>
      </trkpt>
      <trkpt lat="43.71514" lon="7.2999">
        <ele>204.9</ele>
        <time>2014-06-30T18:33:52Z</time>
      </trkpt>
      <trkpt lat="43.71511" lon="7.29972">
        <ele>203.46</ele>
        <time>2014-06-30T18:33:57Z</time>
      </trkpt>
      <trkpt lat="43.71513" lon="7.2997">
        <ele>202.98</ele>
        <time>2014-06-30T18:33:58Z</time>
      </trkpt>
      <trkpt lat="43.71516" lon="7.29971">
        <ele>202.49</ele>
        <time>2014-06-30T18:33:59Z</time>
      </trkpt>
      <trkpt lat="43.71519" lon="7.29973">
        <ele>202.01</ele>
        <time>2014-06-30T18:34:00Z</time>
      </trkpt>
      <trkpt lat="43.71521" lon="7.29976">
        <ele>201.53</ele>
        <time>2014-06-30T18:34:01Z</time>
      </trkpt>
      <trkpt lat="43.71523" lon="7.29978">
        <ele>200.57</ele>
        <time>2014-06-30T18:34:02Z</time>
      </trkpt>
      <trkpt lat="43.71524" lon="7.29979">
        <ele>200.09</ele>
        <time>2014-06-30T18:34:03Z</time>
      </trkpt>
      <trkpt lat="43.71525" lon="7.29977">
        <ele>199.13</ele>
        <time>2014-06-30T18:34:04Z</time>
      </trkpt>
      <trkpt lat="43.71521" lon="7.29973">
        <ele>197.21</ele>
        <time>2014-06-30T18:34:07Z</time>
      </trkpt>
      <trkpt lat="43.71499" lon="7.29958">
        <ele>194.8</ele>
        <time>2014-06-30T18:34:15Z</time>
      </trkpt>
      <trkpt lat="43.71472" lon="7.29962">
        <ele>190.96</ele>
        <time>2014-06-30T18:34:24Z</time>
      </trkpt>
      <trkpt lat="43.7143" lon="7.29993">
        <ele>190</ele>
        <time>2014-06-30T18:34:37Z</time>
      </trkpt>
      <trkpt lat="43.71405" lon="7.30007">
        <ele>186.63</ele>
        <time>2014-06-30T18:34:46Z</time>
      </trkpt>
      <trkpt lat="43.71375" lon="7.30014">
        <ele>186.15</ele>
        <time>2014-06-30T18:34:54Z</time>
      </trkpt>
      <trkpt lat="43.71344" lon="7.30005">
        <ele>188.08</ele>
        <time>2014-06-30T18:35:03Z</time>
      </trkpt>
      <trkpt lat="43.71311" lon="7.30005">
        <ele>193.36</ele>
        <time>2014-06-30T18:35:14Z</time>
      </trkpt>
      <trkpt lat="43.71268" lon="7.29999">
        <ele>196.73</ele>
        <time>2014-06-30T18:35:26Z</time>
      </trkpt>
      <trkpt lat="43.7126" lon="7.29996">
        <ele>197.21</ele>
        <time>2014-06-30T18:35:28Z</time>
      </trkpt>
      <trkpt lat="43.71221" lon="7.29979">
        <ele>196.73</ele>
        <time>2014-06-30T18:35:39Z</time>
      </trkpt>
      <trkpt lat="43.71194" lon="7.29993">
        <ele>194.32</ele>
        <time>2014-06-30T18:35:48Z</time>
      </trkpt>
      <trkpt lat="43.71162" lon="7.30018">
        <ele>188.08</ele>
        <time>2014-06-30T18:35:58Z</time>
      </trkpt>
      <trkpt lat="43.71158" lon="7.3002">
        <ele>187.59</ele>
        <time>2014-06-30T18:35:59Z</time>
      </trkpt>
      <trkpt lat="43.71153" lon="7.30023">
        <ele>188.56</ele>
        <time>2014-06-30T18:36:00Z</time>
      </trkpt>
      <trkpt lat="43.71109" lon="7.30051">
        <ele>195.28</ele>
        <time>2014-06-30T18:36:12Z</time>
      </trkpt>
      <trkpt lat="43.71059" lon="7.30076">
        <ele>197.21</ele>
        <time>2014-06-30T18:36:26Z</time>
      </trkpt>
      <trkpt lat="43.71025" lon="7.30092">
        <ele>198.17</ele>
        <time>2014-06-30T18:36:38Z</time>
      </trkpt>
      <trkpt lat="43.71023" lon="7.30104">
        <ele>197.69</ele>
        <time>2014-06-30T18:36:48Z</time>
      </trkpt>
      <trkpt lat="43.71019" lon="7.30115">
        <ele>191.92</ele>
        <time>2014-06-30T18:37:00Z</time>
      </trkpt>
      <trkpt lat="43.71017" lon="7.30117">
        <ele>190.96</ele>
        <time>2014-06-30T18:37:03Z</time>
      </trkpt>
      <trkpt lat="43.71011" lon="7.30114">
        <ele>185.67</ele>
        <time>2014-06-30T18:37:13Z</time>
      </trkpt>
      <trkpt lat="43.7101" lon="7.30112">
        <ele>185.19</ele>
        <time>2014-06-30T18:37:14Z</time>
      </trkpt>
      <trkpt lat="43.71009" lon="7.30109">
        <ele>185.19</ele>
        <time>2014-06-30T18:37:15Z</time>
      </trkpt>
      <trkpt lat="43.70996" lon="7.30085">
        <ele>182.31</ele>
        <time>2014-06-30T18:37:23Z</time>
      </trkpt>
      <trkpt lat="43.70993" lon="7.30084">
        <ele>181.35</ele>
        <time>2014-06-30T18:37:24Z</time>
      </trkpt>
      <trkpt lat="43.7099" lon="7.30084">
        <ele>180.87</ele>
        <time>2014-06-30T18:37:25Z</time>
      </trkpt>
      <trkpt lat="43.70985" lon="7.30085">
        <ele>179.9</ele>
        <time>2014-06-30T18:37:26Z</time>
      </trkpt>
      <trkpt lat="43.7098" lon="7.30085">
        <ele>179.42</ele>
        <time>2014-06-30T18:37:27Z</time>
      </trkpt>
      <trkpt lat="43.7096" lon="7.3008">
        <ele>177.02</ele>
        <time>2014-06-30T18:37:33Z</time>
      </trkpt>
      <trkpt lat="43.70956" lon="7.3008">
        <ele>176.54</ele>
        <time>2014-06-30T18:37:34Z</time>
      </trkpt>
      <trkpt lat="43.70951" lon="7.30082">
        <ele>176.06</ele>
        <time>2014-06-30T18:37:35Z</time>
      </trkpt>
      <trkpt lat="43.70948" lon="7.30086">
        <ele>176.06</ele>
        <time>2014-06-30T18:37:36Z</time>
      </trkpt>
      <trkpt lat="43.70944" lon="7.30089">
        <ele>175.58</ele>
        <time>2014-06-30T18:37:37Z</time>
      </trkpt>
      <trkpt lat="43.70941" lon="7.30093">
        <ele>175.58</ele>
        <time>2014-06-30T18:37:38Z</time>
      </trkpt>
      <trkpt lat="43.70938" lon="7.30096">
        <ele>175.1</ele>
        <time>2014-06-30T18:37:39Z</time>
      </trkpt>
      <trkpt lat="43.70936" lon="7.301">
        <ele>174.62</ele>
        <time>2014-06-30T18:37:40Z</time>
      </trkpt>
      <trkpt lat="43.70933" lon="7.30103">
        <ele>174.62</ele>
        <time>2014-06-30T18:37:41Z</time>
      </trkpt>
      <trkpt lat="43.70931" lon="7.30106">
        <ele>174.14</ele>
        <time>2014-06-30T18:37:42Z</time>
      </trkpt>
      <trkpt lat="43.70928" lon="7.30109">
        <ele>174.14</ele>
        <time>2014-06-30T18:37:43Z</time>
      </trkpt>
      <trkpt lat="43.70926" lon="7.30113">
        <ele>173.66</ele>
        <time>2014-06-30T18:37:44Z</time>
      </trkpt>
      <trkpt lat="43.70924" lon="7.30115">
        <ele>173.66</ele>
        <time>2014-06-30T18:37:45Z</time>
      </trkpt>
      <trkpt lat="43.70922" lon="7.30117">
        <ele>173.66</ele>
        <time>2014-06-30T18:37:46Z</time>
      </trkpt>
      <trkpt lat="43.70919" lon="7.30119">
        <ele>173.66</ele>
        <time>2014-06-30T18:37:47Z</time>
      </trkpt>
      <trkpt lat="43.70916" lon="7.30122">
        <ele>173.66</ele>
        <time>2014-06-30T18:37:48Z</time>
      </trkpt>
      <trkpt lat="43.70883" lon="7.30148">
        <ele>173.17</ele>
        <time>2014-06-30T18:37:59Z</time>
      </trkpt>
      <trkpt lat="43.70861" lon="7.3017">
        <ele>173.17</ele>
        <time>2014-06-30T18:38:08Z</time>
      </trkpt>
      <trkpt lat="43.7083" lon="7.30212">
        <ele>172.21</ele>
        <time>2014-06-30T18:38:20Z</time>
      </trkpt>
      <trkpt lat="43.70809" lon="7.30244">
        <ele>171.25</ele>
        <time>2014-06-30T18:38:29Z</time>
      </trkpt>
      <trkpt lat="43.70806" lon="7.30243">
        <ele>170.29</ele>
        <time>2014-06-30T18:38:30Z</time>
      </trkpt>
      <trkpt lat="43.70802" lon="7.30239">
        <ele>169.81</ele>
        <time>2014-06-30T18:38:31Z</time>
      </trkpt>
      <trkpt lat="43.708" lon="7.30233">
        <ele>169.33</ele>
        <time>2014-06-30T18:38:32Z</time>
      </trkpt>
      <trkpt lat="43.70798" lon="7.30226">
        <ele>168.85</ele>
        <time>2014-06-30T18:38:33Z</time>
      </trkpt>
      <trkpt lat="43.70794" lon="7.30219">
        <ele>168.37</ele>
        <time>2014-06-30T18:38:34Z</time>
      </trkpt>
      <trkpt lat="43.7079" lon="7.30212">
        <ele>167.89</ele>
        <time>2014-06-30T18:38:35Z</time>
      </trkpt>
      <trkpt lat="43.70785" lon="7.30205">
        <ele>167.41</ele>
        <time>2014-06-30T18:38:36Z</time>
      </trkpt>
      <trkpt lat="43.70768" lon="7.30188">
        <ele>165.48</ele>
        <time>2014-06-30T18:38:39Z</time>
      </trkpt>
      <trkpt lat="43.70748" lon="7.30178">
        <ele>164.04</ele>
        <time>2014-06-30T18:38:42Z</time>
      </trkpt>
      <trkpt lat="43.7072" lon="7.30168">
        <ele>161.64</ele>
        <time>2014-06-30T18:38:47Z</time>
      </trkpt>
      <trkpt lat="43.70714" lon="7.30165">
        <ele>161.16</ele>
        <time>2014-06-30T18:38:48Z</time>
      </trkpt>
      <trkpt lat="43.70708" lon="7.3016">
        <ele>160.68</ele>
        <time>2014-06-30T18:38:49Z</time>
      </trkpt>
      <trkpt lat="43.70656" lon="7.30113">
        <ele>154.91</ele>
        <time>2014-06-30T18:38:57Z</time>
      </trkpt>
      <trkpt lat="43.70633" lon="7.3009">
        <ele>152.03</ele>
        <time>2014-06-30T18:39:02Z</time>
      </trkpt>
      <trkpt lat="43.70616" lon="7.30073">
        <ele>151.06</ele>
        <time>2014-06-30T18:39:10Z</time>
      </trkpt>
      <trkpt lat="43.70615" lon="7.30074">
        <ele>151.06</ele>
        <time>2014-06-30T18:39:11Z</time>
      </trkpt>
      <trkpt lat="43.70609" lon="7.3008">
        <ele>149.62</ele>
        <time>2014-06-30T18:39:14Z</time>
      </trkpt>
      <trkpt lat="43.70607" lon="7.30079">
        <ele>149.62</ele>
        <time>2014-06-30T18:39:15Z</time>
      </trkpt>
      <trkpt lat="43.70605" lon="7.3008">
        <ele>149.62</ele>
        <time>2014-06-30T18:39:16Z</time>
      </trkpt>
      <trkpt lat="43.70602" lon="7.30081">
        <ele>149.14</ele>
        <time>2014-06-30T18:39:17Z</time>
      </trkpt>
      <trkpt lat="43.70599" lon="7.30081">
        <ele>149.14</ele>
        <time>2014-06-30T18:39:18Z</time>
      </trkpt>
      <trkpt lat="43.70596" lon="7.3008">
        <ele>148.66</ele>
        <time>2014-06-30T18:39:19Z</time>
      </trkpt>
      <trkpt lat="43.70593" lon="7.30076">
        <ele>148.18</ele>
        <time>2014-06-30T18:39:20Z</time>
      </trkpt>
      <trkpt lat="43.70591" lon="7.3007">
        <ele>148.18</ele>
        <time>2014-06-30T18:39:21Z</time>
      </trkpt>
      <trkpt lat="43.7059" lon="7.30063">
        <ele>147.7</ele>
        <time>2014-06-30T18:39:22Z</time>
      </trkpt>
      <trkpt lat="43.7058" lon="7.30023">
        <ele>146.26</ele>
        <time>2014-06-30T18:39:28Z</time>
      </trkpt>
      <trkpt lat="43.70581" lon="7.30017">
        <ele>146.26</ele>
        <time>2014-06-30T18:39:29Z</time>
      </trkpt>
      <trkpt lat="43.70583" lon="7.3001">
        <ele>145.78</ele>
        <time>2014-06-30T18:39:30Z</time>
      </trkpt>
      <trkpt lat="43.70587" lon="7.30003">
        <ele>145.3</ele>
        <time>2014-06-30T18:39:31Z</time>
      </trkpt>
      <trkpt lat="43.70591" lon="7.29995">
        <ele>144.82</ele>
        <time>2014-06-30T18:39:32Z</time>
      </trkpt>
      <trkpt lat="43.70614" lon="7.29953">
        <ele>139.05</ele>
        <time>2014-06-30T18:39:37Z</time>
      </trkpt>
      <trkpt lat="43.70617" lon="7.29942">
        <ele>137.61</ele>
        <time>2014-06-30T18:39:38Z</time>
      </trkpt>
      <trkpt lat="43.70634" lon="7.29874">
        <ele>129.92</ele>
        <time>2014-06-30T18:39:46Z</time>
      </trkpt>
      <trkpt lat="43.70642" lon="7.29853">
        <ele>127.51</ele>
        <time>2014-06-30T18:39:49Z</time>
      </trkpt>
      <trkpt lat="43.70645" lon="7.29847">
        <ele>127.03</ele>
        <time>2014-06-30T18:39:50Z</time>
      </trkpt>
      <trkpt lat="43.70649" lon="7.29841">
        <ele>126.07</ele>
        <time>2014-06-30T18:39:51Z</time>
      </trkpt>
      <trkpt lat="43.70658" lon="7.29828">
        <ele>124.15</ele>
        <time>2014-06-30T18:39:54Z</time>
      </trkpt>
      <trkpt lat="43.70675" lon="7.29804">
        <ele>121.74</ele>
        <time>2014-06-30T18:39:58Z</time>
      </trkpt>
      <trkpt lat="43.70678" lon="7.29797">
        <ele>120.78</ele>
        <time>2014-06-30T18:39:59Z</time>
      </trkpt>
      <trkpt lat="43.70688" lon="7.29772">
        <ele>119.34</ele>
        <time>2014-06-30T18:40:02Z</time>
      </trkpt>
      <trkpt lat="43.70693" lon="7.29765">
        <ele>119.34</ele>
        <time>2014-06-30T18:40:03Z</time>
      </trkpt>
      <trkpt lat="43.70697" lon="7.29759">
        <ele>118.86</ele>
        <time>2014-06-30T18:40:04Z</time>
      </trkpt>
      <trkpt lat="43.70702" lon="7.29754">
        <ele>118.38</ele>
        <time>2014-06-30T18:40:05Z</time>
      </trkpt>
      <trkpt lat="43.70707" lon="7.29751">
        <ele>118.38</ele>
        <time>2014-06-30T18:40:06Z</time>
      </trkpt>
      <trkpt lat="43.70712" lon="7.29747">
        <ele>118.38</ele>
        <time>2014-06-30T18:40:07Z</time>
      </trkpt>
      <trkpt lat="43.70716" lon="7.29742">
        <ele>118.38</ele>
        <time>2014-06-30T18:40:08Z</time>
      </trkpt>
      <trkpt lat="43.70727" lon="7.29728">
        <ele>118.38</ele>
        <time>2014-06-30T18:40:11Z</time>
      </trkpt>
      <trkpt lat="43.70732" lon="7.29717">
        <ele>118.86</ele>
        <time>2014-06-30T18:40:13Z</time>
      </trkpt>
      <trkpt lat="43.70735" lon="7.29712">
        <ele>118.86</ele>
        <time>2014-06-30T18:40:14Z</time>
      </trkpt>
      <trkpt lat="43.70741" lon="7.29702">
        <ele>118.86</ele>
        <time>2014-06-30T18:40:16Z</time>
      </trkpt>
      <trkpt lat="43.70744" lon="7.29699">
        <ele>118.86</ele>
        <time>2014-06-30T18:40:17Z</time>
      </trkpt>
      <trkpt lat="43.70748" lon="7.29696">
        <ele>118.86</ele>
        <time>2014-06-30T18:40:18Z</time>
      </trkpt>
      <trkpt lat="43.70752" lon="7.29695">
        <ele>118.86</ele>
        <time>2014-06-30T18:40:19Z</time>
      </trkpt>
      <trkpt lat="43.70757" lon="7.29695">
        <ele>118.86</ele>
        <time>2014-06-30T18:40:20Z</time>
      </trkpt>
      <trkpt lat="43.70761" lon="7.29696">
        <ele>118.86</ele>
        <time>2014-06-30T18:40:21Z</time>
      </trkpt>
      <trkpt lat="43.70764" lon="7.29699">
        <ele>119.34</ele>
        <time>2014-06-30T18:40:22Z</time>
      </trkpt>
      <trkpt lat="43.70768" lon="7.29703">
        <ele>119.34</ele>
        <time>2014-06-30T18:40:23Z</time>
      </trkpt>
      <trkpt lat="43.70771" lon="7.29707">
        <ele>119.34</ele>
        <time>2014-06-30T18:40:24Z</time>
      </trkpt>
      <trkpt lat="43.70773" lon="7.29711">
        <ele>119.82</ele>
        <time>2014-06-30T18:40:25Z</time>
      </trkpt>
      <trkpt lat="43.70776" lon="7.29716">
        <ele>119.82</ele>
        <time>2014-06-30T18:40:26Z</time>
      </trkpt>
      <trkpt lat="43.70779" lon="7.2972">
        <ele>119.34</ele>
        <time>2014-06-30T18:40:27Z</time>
      </trkpt>
      <trkpt lat="43.70783" lon="7.29724">
        <ele>119.82</ele>
        <time>2014-06-30T18:40:28Z</time>
      </trkpt>
      <trkpt lat="43.70786" lon="7.29726">
        <ele>119.82</ele>
        <time>2014-06-30T18:40:29Z</time>
      </trkpt>
      <trkpt lat="43.70794" lon="7.2973">
        <ele>120.3</ele>
        <time>2014-06-30T18:40:31Z</time>
      </trkpt>
      <trkpt lat="43.70823" lon="7.2975">
        <ele>121.74</ele>
        <time>2014-06-30T18:40:38Z</time>
      </trkpt>
      <trkpt lat="43.70828" lon="7.29753">
        <ele>121.26</ele>
        <time>2014-06-30T18:40:39Z</time>
      </trkpt>
      <trkpt lat="43.70833" lon="7.29754">
        <ele>120.78</ele>
        <time>2014-06-30T18:40:40Z</time>
      </trkpt>
      <trkpt lat="43.70848" lon="7.29756">
        <ele>120.3</ele>
        <time>2014-06-30T18:40:43Z</time>
      </trkpt>
      <trkpt lat="43.70852" lon="7.29758">
        <ele>120.3</ele>
        <time>2014-06-30T18:40:44Z</time>
      </trkpt>
      <trkpt lat="43.70857" lon="7.29761">
        <ele>120.78</ele>
        <time>2014-06-30T18:40:45Z</time>
      </trkpt>
      <trkpt lat="43.70908" lon="7.29799">
        <ele>119.34</ele>
        <time>2014-06-30T18:40:55Z</time>
      </trkpt>
      <trkpt lat="43.70913" lon="7.29802">
        <ele>118.86</ele>
        <time>2014-06-30T18:40:56Z</time>
      </trkpt>
      <trkpt lat="43.70918" lon="7.29803">
        <ele>118.38</ele>
        <time>2014-06-30T18:40:57Z</time>
      </trkpt>
      <trkpt lat="43.70923" lon="7.29805">
        <ele>117.9</ele>
        <time>2014-06-30T18:40:58Z</time>
      </trkpt>
      <trkpt lat="43.70928" lon="7.29804">
        <ele>117.42</ele>
        <time>2014-06-30T18:40:59Z</time>
      </trkpt>
      <trkpt lat="43.70933" lon="7.29803">
        <ele>116.94</ele>
        <time>2014-06-30T18:41:00Z</time>
      </trkpt>
      <trkpt lat="43.70938" lon="7.29801">
        <ele>116.46</ele>
        <time>2014-06-30T18:41:01Z</time>
      </trkpt>
      <trkpt lat="43.70942" lon="7.29796">
        <ele>115.01</ele>
        <time>2014-06-30T18:41:02Z</time>
      </trkpt>
      <trkpt lat="43.70945" lon="7.29789">
        <ele>114.05</ele>
        <time>2014-06-30T18:41:03Z</time>
      </trkpt>
      <trkpt lat="43.70946" lon="7.29781">
        <ele>113.57</ele>
        <time>2014-06-30T18:41:04Z</time>
      </trkpt>
      <trkpt lat="43.70947" lon="7.29772">
        <ele>113.09</ele>
        <time>2014-06-30T18:41:05Z</time>
      </trkpt>
      <trkpt lat="43.70963" lon="7.2967">
        <ele>105.4</ele>
        <time>2014-06-30T18:41:14Z</time>
      </trkpt>
      <trkpt lat="43.70967" lon="7.29658">
        <ele>104.44</ele>
        <time>2014-06-30T18:41:15Z</time>
      </trkpt>
      <trkpt lat="43.70972" lon="7.29647">
        <ele>103.48</ele>
        <time>2014-06-30T18:41:16Z</time>
      </trkpt>
      <trkpt lat="43.70978" lon="7.29638">
        <ele>102.52</ele>
        <time>2014-06-30T18:41:17Z</time>
      </trkpt>
      <trkpt lat="43.70982" lon="7.2963">
        <ele>101.08</ele>
        <time>2014-06-30T18:41:18Z</time>
      </trkpt>
      <trkpt lat="43.70986" lon="7.29624">
        <ele>100.11</ele>
        <time>2014-06-30T18:41:19Z</time>
      </trkpt>
      <trkpt lat="43.70987" lon="7.29618">
        <ele>99.63</ele>
        <time>2014-06-30T18:41:20Z</time>
      </trkpt>
      <trkpt lat="43.70986" lon="7.2961">
        <ele>99.15</ele>
        <time>2014-06-30T18:41:21Z</time>
      </trkpt>
      <trkpt lat="43.70983" lon="7.29603">
        <ele>98.67</ele>
        <time>2014-06-30T18:41:22Z</time>
      </trkpt>
      <trkpt lat="43.70977" lon="7.29598">
        <ele>97.71</ele>
        <time>2014-06-30T18:41:23Z</time>
      </trkpt>
      <trkpt lat="43.7097" lon="7.29595">
        <ele>97.23</ele>
        <time>2014-06-30T18:41:24Z</time>
      </trkpt>
      <trkpt lat="43.70962" lon="7.29597">
        <ele>96.75</ele>
        <time>2014-06-30T18:41:25Z</time>
      </trkpt>
      <trkpt lat="43.70956" lon="7.29602">
        <ele>95.79</ele>
        <time>2014-06-30T18:41:26Z</time>
      </trkpt>
      <trkpt lat="43.70949" lon="7.29609">
        <ele>94.83</ele>
        <time>2014-06-30T18:41:27Z</time>
      </trkpt>
      <trkpt lat="43.70942" lon="7.29614">
        <ele>94.35</ele>
        <time>2014-06-30T18:41:28Z</time>
      </trkpt>
      <trkpt lat="43.70934" lon="7.29615">
        <ele>93.39</ele>
        <time>2014-06-30T18:41:29Z</time>
      </trkpt>
      <trkpt lat="43.70927" lon="7.29611">
        <ele>92.42</ele>
        <time>2014-06-30T18:41:30Z</time>
      </trkpt>
      <trkpt lat="43.7092" lon="7.29605">
        <ele>91.46</ele>
        <time>2014-06-30T18:41:31Z</time>
      </trkpt>
      <trkpt lat="43.70899" lon="7.29587">
        <ele>89.54</ele>
        <time>2014-06-30T18:41:34Z</time>
      </trkpt>
      <trkpt lat="43.70892" lon="7.29581">
        <ele>88.58</ele>
        <time>2014-06-30T18:41:35Z</time>
      </trkpt>
      <trkpt lat="43.70884" lon="7.29575">
        <ele>87.62</ele>
        <time>2014-06-30T18:41:36Z</time>
      </trkpt>
      <trkpt lat="43.70876" lon="7.29569">
        <ele>86.66</ele>
        <time>2014-06-30T18:41:37Z</time>
      </trkpt>
      <trkpt lat="43.70868" lon="7.29561">
        <ele>85.69</ele>
        <time>2014-06-30T18:41:38Z</time>
      </trkpt>
      <trkpt lat="43.70861" lon="7.29552">
        <ele>84.73</ele>
        <time>2014-06-30T18:41:39Z</time>
      </trkpt>
      <trkpt lat="43.70848" lon="7.29536">
        <ele>82.81</ele>
        <time>2014-06-30T18:41:41Z</time>
      </trkpt>
      <trkpt lat="43.70844" lon="7.29527">
        <ele>81.85</ele>
        <time>2014-06-30T18:41:42Z</time>
      </trkpt>
      <trkpt lat="43.70844" lon="7.29516">
        <ele>80.89</ele>
        <time>2014-06-30T18:41:43Z</time>
      </trkpt>
      <trkpt lat="43.70846" lon="7.29507">
        <ele>79.93</ele>
        <time>2014-06-30T18:41:44Z</time>
      </trkpt>
      <trkpt lat="43.70852" lon="7.295">
        <ele>79.45</ele>
        <time>2014-06-30T18:41:45Z</time>
      </trkpt>
      <trkpt lat="43.70859" lon="7.29499">
        <ele>78.48</ele>
        <time>2014-06-30T18:41:46Z</time>
      </trkpt>
      <trkpt lat="43.70867" lon="7.295">
        <ele>78</ele>
        <time>2014-06-30T18:41:47Z</time>
      </trkpt>
      <trkpt lat="43.70874" lon="7.29504">
        <ele>77.04</ele>
        <time>2014-06-30T18:41:48Z</time>
      </trkpt>
      <trkpt lat="43.70882" lon="7.29508">
        <ele>76.56</ele>
        <time>2014-06-30T18:41:49Z</time>
      </trkpt>
      <trkpt lat="43.70889" lon="7.29514">
        <ele>76.08</ele>
        <time>2014-06-30T18:41:50Z</time>
      </trkpt>
      <trkpt lat="43.70896" lon="7.29521">
        <ele>75.12</ele>
        <time>2014-06-30T18:41:51Z</time>
      </trkpt>
      <trkpt lat="43.70919" lon="7.29537">
        <ele>73.2</ele>
        <time>2014-06-30T18:41:54Z</time>
      </trkpt>
      <trkpt lat="43.70928" lon="7.2954">
        <ele>72.72</ele>
        <time>2014-06-30T18:41:55Z</time>
      </trkpt>
      <trkpt lat="43.70937" lon="7.2954">
        <ele>72.24</ele>
        <time>2014-06-30T18:41:56Z</time>
      </trkpt>
      <trkpt lat="43.70946" lon="7.29538">
        <ele>71.27</ele>
        <time>2014-06-30T18:41:57Z</time>
      </trkpt>
      <trkpt lat="43.70955" lon="7.29536">
        <ele>70.79</ele>
        <time>2014-06-30T18:41:58Z</time>
      </trkpt>
      <trkpt lat="43.70964" lon="7.29537">
        <ele>69.83</ele>
        <time>2014-06-30T18:41:59Z</time>
      </trkpt>
      <trkpt lat="43.70974" lon="7.29539">
        <ele>69.35</ele>
        <time>2014-06-30T18:42:00Z</time>
      </trkpt>
      <trkpt lat="43.71012" lon="7.29546">
        <ele>65.99</ele>
        <time>2014-06-30T18:42:04Z</time>
      </trkpt>
      <trkpt lat="43.71036" lon="7.29546">
        <ele>63.58</ele>
        <time>2014-06-30T18:42:07Z</time>
      </trkpt>
      <trkpt lat="43.71043" lon="7.29549">
        <ele>62.62</ele>
        <time>2014-06-30T18:42:08Z</time>
      </trkpt>
      <trkpt lat="43.7105" lon="7.29553">
        <ele>62.14</ele>
        <time>2014-06-30T18:42:09Z</time>
      </trkpt>
      <trkpt lat="43.71064" lon="7.29562">
        <ele>60.7</ele>
        <time>2014-06-30T18:42:11Z</time>
      </trkpt>
      <trkpt lat="43.71071" lon="7.29563">
        <ele>60.22</ele>
        <time>2014-06-30T18:42:12Z</time>
      </trkpt>
      <trkpt lat="43.71076" lon="7.29563">
        <ele>59.74</ele>
        <time>2014-06-30T18:42:13Z</time>
      </trkpt>
      <trkpt lat="43.71081" lon="7.29559">
        <ele>59.74</ele>
        <time>2014-06-30T18:42:14Z</time>
      </trkpt>
      <trkpt lat="43.71083" lon="7.29553">
        <ele>59.26</ele>
        <time>2014-06-30T18:42:15Z</time>
      </trkpt>
      <trkpt lat="43.71082" lon="7.29545">
        <ele>58.78</ele>
        <time>2014-06-30T18:42:16Z</time>
      </trkpt>
      <trkpt lat="43.71078" lon="7.29539">
        <ele>58.3</ele>
        <time>2014-06-30T18:42:17Z</time>
      </trkpt>
      <trkpt lat="43.71072" lon="7.29536">
        <ele>57.82</ele>
        <time>2014-06-30T18:42:18Z</time>
      </trkpt>
      <trkpt lat="43.71065" lon="7.29534">
        <ele>57.34</ele>
        <time>2014-06-30T18:42:19Z</time>
      </trkpt>
      <trkpt lat="43.71058" lon="7.29532">
        <ele>56.86</ele>
        <time>2014-06-30T18:42:20Z</time>
      </trkpt>
      <trkpt lat="43.71052" lon="7.29528">
        <ele>56.37</ele>
        <time>2014-06-30T18:42:21Z</time>
      </trkpt>
      <trkpt lat="43.71047" lon="7.29523">
        <ele>55.89</ele>
        <time>2014-06-30T18:42:22Z</time>
      </trkpt>
      <trkpt lat="43.71044" lon="7.29516">
        <ele>55.41</ele>
        <time>2014-06-30T18:42:23Z</time>
      </trkpt>
      <trkpt lat="43.71043" lon="7.29509">
        <ele>54.93</ele>
        <time>2014-06-30T18:42:24Z</time>
      </trkpt>
      <trkpt lat="43.71045" lon="7.29503">
        <ele>54.93</ele>
        <time>2014-06-30T18:42:25Z</time>
      </trkpt>
      <trkpt lat="43.71049" lon="7.29502">
        <ele>54.45</ele>
        <time>2014-06-30T18:42:26Z</time>
      </trkpt>
      <trkpt lat="43.71054" lon="7.29504">
        <ele>53.97</ele>
        <time>2014-06-30T18:42:27Z</time>
      </trkpt>
      <trkpt lat="43.71058" lon="7.29508">
        <ele>53.97</ele>
        <time>2014-06-30T18:42:28Z</time>
      </trkpt>
      <trkpt lat="43.71063" lon="7.29513">
        <ele>53.49</ele>
        <time>2014-06-30T18:42:29Z</time>
      </trkpt>
      <trkpt lat="43.71077" lon="7.29528">
        <ele>52.53</ele>
        <time>2014-06-30T18:42:32Z</time>
      </trkpt>
      <trkpt lat="43.71083" lon="7.29531">
        <ele>52.53</ele>
        <time>2014-06-30T18:42:33Z</time>
      </trkpt>
      <trkpt lat="43.71089" lon="7.29532">
        <ele>52.05</ele>
        <time>2014-06-30T18:42:34Z</time>
      </trkpt>
      <trkpt lat="43.71095" lon="7.29531">
        <ele>52.05</ele>
        <time>2014-06-30T18:42:35Z</time>
      </trkpt>
      <trkpt lat="43.71099" lon="7.29532">
        <ele>52.53</ele>
        <time>2014-06-30T18:42:36Z</time>
      </trkpt>
      <trkpt lat="43.71103" lon="7.29533">
        <ele>52.53</ele>
        <time>2014-06-30T18:42:37Z</time>
      </trkpt>
      <trkpt lat="43.71106" lon="7.29535">
        <ele>52.53</ele>
        <time>2014-06-30T18:42:38Z</time>
      </trkpt>
      <trkpt lat="43.71109" lon="7.29537">
        <ele>52.53</ele>
        <time>2014-06-30T18:42:39Z</time>
      </trkpt>
      <trkpt lat="43.71112" lon="7.29538">
        <ele>52.53</ele>
        <time>2014-06-30T18:42:40Z</time>
      </trkpt>
      <trkpt lat="43.71115" lon="7.2954">
        <ele>53.01</ele>
        <time>2014-06-30T18:42:41Z</time>
      </trkpt>
      <trkpt lat="43.71123" lon="7.29545">
        <ele>53.01</ele>
        <time>2014-06-30T18:42:45Z</time>
      </trkpt>
      <trkpt lat="43.71126" lon="7.29549">
        <ele>53.01</ele>
        <time>2014-06-30T18:42:55Z</time>
      </trkpt>
      <trkpt lat="43.71128" lon="7.2955">
        <ele>52.53</ele>
        <time>2014-06-30T18:43:02Z</time>
      </trkpt>
      <trkpt lat="43.71129" lon="7.2955">
        <ele>52.05</ele>
        <time>2014-06-30T18:43:03Z</time>
      </trkpt>
      <trkpt lat="43.71131" lon="7.29551">
        <ele>51.57</ele>
        <time>2014-06-30T18:43:04Z</time>
      </trkpt>
      <trkpt lat="43.71133" lon="7.29553">
        <ele>51.09</ele>
        <time>2014-06-30T18:43:05Z</time>
      </trkpt>
      <trkpt lat="43.71136" lon="7.29555">
        <ele>50.61</ele>
        <time>2014-06-30T18:43:06Z</time>
      </trkpt>
      <trkpt lat="43.71139" lon="7.29556">
        <ele>50.61</ele>
        <time>2014-06-30T18:43:07Z</time>
      </trkpt>
      <trkpt lat="43.71165" lon="7.29569">
        <ele>52.53</ele>
        <time>2014-06-30T18:43:18Z</time>
      </trkpt>
      <trkpt lat="43.71188" lon="7.29578">
        <ele>55.41</ele>
        <time>2014-06-30T18:43:28Z</time>
      </trkpt>
      <trkpt lat="43.71223" lon="7.29587">
        <ele>61.66</ele>
        <time>2014-06-30T18:43:44Z</time>
      </trkpt>
      <trkpt lat="43.71244" lon="7.29588">
        <ele>65.99</ele>
        <time>2014-06-30T18:43:54Z</time>
      </trkpt>
      <trkpt lat="43.71281" lon="7.29595">
        <ele>70.31</ele>
        <time>2014-06-30T18:44:10Z</time>
      </trkpt>
      <trkpt lat="43.71318" lon="7.29613">
        <ele>76.08</ele>
        <time>2014-06-30T18:44:26Z</time>
      </trkpt>
      <trkpt lat="43.71353" lon="7.29631">
        <ele>80.41</ele>
        <time>2014-06-30T18:44:41Z</time>
      </trkpt>
      <trkpt lat="43.71384" lon="7.29649">
        <ele>81.37</ele>
        <time>2014-06-30T18:44:54Z</time>
      </trkpt>
      <trkpt lat="43.7142" lon="7.29671">
        <ele>83.29</ele>
        <time>2014-06-30T18:45:11Z</time>
      </trkpt>
      <trkpt lat="43.71421" lon="7.29673">
        <ele>84.25</ele>
        <time>2014-06-30T18:45:15Z</time>
      </trkpt>
      <trkpt lat="43.71421" lon="7.29674">
        <ele>84.25</ele>
        <time>2014-06-30T18:45:28Z</time>
      </trkpt>
      <trkpt lat="43.71421" lon="7.29676">
        <ele>85.69</ele>
        <time>2014-06-30T18:45:40Z</time>
      </trkpt>
      <trkpt lat="43.71421" lon="7.29678">
        <ele>87.62</ele>
        <time>2014-06-30T18:45:55Z</time>
      </trkpt>
      <trkpt lat="43.71421" lon="7.29684">
        <ele>90.02</ele>
        <time>2014-06-30T18:46:03Z</time>
      </trkpt>
      <trkpt lat="43.71422" lon="7.29689">
        <ele>90.5</ele>
        <time>2014-06-30T18:46:11Z</time>
      </trkpt>
      <trkpt lat="43.71421" lon="7.2969">
        <ele>90.98</ele>
        <time>2014-06-30T18:46:25Z</time>
      </trkpt>
      <trkpt lat="43.7142" lon="7.29693">
        <ele>91.94</ele>
        <time>2014-06-30T18:46:33Z</time>
      </trkpt>
      <trkpt lat="43.71416" lon="7.29694">
        <ele>90.5</ele>
        <time>2014-06-30T18:46:40Z</time>
      </trkpt>
      <trkpt lat="43.71412" lon="7.29691">
        <ele>89.54</ele>
        <time>2014-06-30T18:46:53Z</time>
      </trkpt>
      <trkpt lat="43.71409" lon="7.29691">
        <ele>89.54</ele>
        <time>2014-06-30T18:47:04Z</time>
      </trkpt>
      <trkpt lat="43.71409" lon="7.29692">
        <ele>90.98</ele>
        <time>2014-06-30T18:47:19Z</time>
      </trkpt>
      <trkpt lat="43.71408" lon="7.29692">
        <ele>91.94</ele>
        <time>2014-06-30T18:47:40Z</time>
      </trkpt>
      <trkpt lat="43.7141" lon="7.29694">
        <ele>91.94</ele>
        <time>2014-06-30T18:47:55Z</time>
      </trkpt>
      <trkpt lat="43.7141" lon="7.29693">
        <ele>92.42</ele>
        <time>2014-06-30T18:47:59Z</time>
      </trkpt>
      <trkpt lat="43.71411" lon="7.2969">
        <ele>91.94</ele>
        <time>2014-06-30T18:48:14Z</time>
      </trkpt>
      <trkpt lat="43.71413" lon="7.29691">
        <ele>90.98</ele>
        <time>2014-06-30T18:48:19Z</time>
      </trkpt>
      <trkpt lat="43.71414" lon="7.29696">
        <ele>90.02</ele>
        <time>2014-06-30T18:48:37Z</time>
      </trkpt>
      <trkpt lat="43.71414" lon="7.2969">
        <ele>90.98</ele>
        <time>2014-06-30T18:48:57Z</time>
      </trkpt>
      <trkpt lat="43.71413" lon="7.29687">
        <ele>92.9</ele>
        <time>2014-06-30T18:49:35Z</time>
      </trkpt>
      <trkpt lat="43.71412" lon="7.29687">
        <ele>92.9</ele>
        <time>2014-06-30T18:50:07Z</time>
      </trkpt>
      <trkpt lat="43.71412" lon="7.29685">
        <ele>93.87</ele>
        <time>2014-06-30T18:50:37Z</time>
      </trkpt>
      <trkpt lat="43.71412" lon="7.29684">
        <ele>95.31</ele>
        <time>2014-06-30T18:51:07Z</time>
      </trkpt>
      <trkpt lat="43.71412" lon="7.29684">
        <ele>95.79</ele>
        <time>2014-06-30T18:51:38Z</time>
      </trkpt>
      <trkpt lat="43.71412" lon="7.29683">
        <ele>96.27</ele>
        <time>2014-06-30T18:52:09Z</time>
      </trkpt>
      <trkpt lat="43.71412" lon="7.29683">
        <ele>96.27</ele>
        <time>2014-06-30T18:52:41Z</time>
      </trkpt>
      <trkpt lat="43.71411" lon="7.29683">
        <ele>96.27</ele>
        <time>2014-06-30T18:53:15Z</time>
      </trkpt>
      <trkpt lat="43.71412" lon="7.29682">
        <ele>95.31</ele>
        <time>2014-06-30T18:53:57Z</time>
      </trkpt>
      <trkpt lat="43.71412" lon="7.29682">
        <ele>94.83</ele>
        <time>2014-06-30T18:54:33Z</time>
      </trkpt>
      <trkpt lat="43.71412" lon="7.29682">
        <ele>94.35</ele>
        <time>2014-06-30T18:55:07Z</time>
      </trkpt>
      <trkpt lat="43.71412" lon="7.29683">
        <ele>93.39</ele>
        <time>2014-06-30T18:55:43Z</time>
      </trkpt>
      <trkpt lat="43.71413" lon="7.29683">
        <ele>93.39</ele>
        <time>2014-06-30T18:56:20Z</time>
      </trkpt>
      <trkpt lat="43.71413" lon="7.29683">
        <ele>93.39</ele>
        <time>2014-06-30T18:56:54Z</time>
      </trkpt>
      <trkpt lat="43.71413" lon="7.29683">
        <ele>92.9</ele>
        <time>2014-06-30T18:57:32Z</time>
      </trkpt>
      <trkpt lat="43.71413" lon="7.29683">
        <ele>92.42</ele>
        <time>2014-06-30T18:58:09Z</time>
      </trkpt>
      <trkpt lat="43.71413" lon="7.29684">
        <ele>92.42</ele>
        <time>2014-06-30T18:58:47Z</time>
      </trkpt>
      <trkpt lat="43.71413" lon="7.29684">
        <ele>91.94</ele>
        <time>2014-06-30T18:59:23Z</time>
      </trkpt>
      <trkpt lat="43.71413" lon="7.29685">
        <ele>91.94</ele>
        <time>2014-06-30T18:59:58Z</time>
      </trkpt>
      <trkpt lat="43.71413" lon="7.29686">
        <ele>91.46</ele>
        <time>2014-06-30T19:00:33Z</time>
      </trkpt>
      <trkpt lat="43.71412" lon="7.29686">
        <ele>90.98</ele>
        <time>2014-06-30T19:01:08Z</time>
      </trkpt>
      <trkpt lat="43.71412" lon="7.29686">
        <ele>90.98</ele>
        <time>2014-06-30T19:01:43Z</time>
      </trkpt>
      <trkpt lat="43.71412" lon="7.29686">
        <ele>90.98</ele>
        <time>2014-06-30T19:02:16Z</time>
      </trkpt>
      <trkpt lat="43.71411" lon="7.29686">
        <ele>91.46</ele>
        <time>2014-06-30T19:02:57Z</time>
      </trkpt>
      <trkpt lat="43.71411" lon="7.29686">
        <ele>92.42</ele>
        <time>2014-06-30T19:03:36Z</time>
      </trkpt>
      <trkpt lat="43.71412" lon="7.29685">
        <ele>92.9</ele>
        <time>2014-06-30T19:04:12Z</time>
      </trkpt>
      <trkpt lat="43.71412" lon="7.29685">
        <ele>92.9</ele>
        <time>2014-06-30T19:04:45Z</time>
      </trkpt>
      <trkpt lat="43.71413" lon="7.29685">
        <ele>93.39</ele>
        <time>2014-06-30T19:05:18Z</time>
      </trkpt>
      <trkpt lat="43.71413" lon="7.29685">
        <ele>93.39</ele>
        <time>2014-06-30T19:06:00Z</time>
      </trkpt>
      <trkpt lat="43.71412" lon="7.29686">
        <ele>93.39</ele>
        <time>2014-06-30T19:06:40Z</time>
      </trkpt>
      <trkpt lat="43.71412" lon="7.29686">
        <ele>93.39</ele>
        <time>2014-06-30T19:07:25Z</time>
      </trkpt>
    </trkseg>
  </trk>
</gpx>